
Distance (Route):
Temperature : 0°C
Humidity : 0%
Pressure : 0hPa| Receiver | Frames | First received | Last received |
|---|---|---|---|
| PU1XMG-16 | 526 | 2026-09-03 11:34:13 | 2026-09-03 12:52:25 |
| Receiver | Date | Latitude | Longitude | Direction | Speed | Altitude | Climb | Temperature | Humidity | Pressure | Voltage | Killtimer | Uptime | BKT | XDATA |
|---|---|---|---|---|---|---|---|---|---|---|---|---|---|---|---|
| PU1XMG-16 | 2026-09-03 12:52:25 | -22.51988 | -42.41810 | 59° | 5km/h | 22162m | -9.5m/s | 0°C | 0% | 0hPa | 0V | 08:24:00 | 00:00:00 | 00:00:00 | |
| PU1XMG-16 | 2026-09-03 12:52:09 | -22.52027 | -42.41854 | 60° | 22km/h | 22320m | -9.3m/s | 0°C | 0% | 0hPa | 0V | 08:24:00 | 00:00:00 | 00:00:00 | |
| PU1XMG-16 | 2026-09-03 12:52:03 | -22.52043 | -42.41877 | 47° | 20km/h | 22367m | -9.2m/s | 0°C | 0% | 0hPa | 0V | 00:00:00 | 00:00:00 | 00:00:00 | |
| PU1XMG-16 | 2026-09-03 12:51:57 | -22.52064 | -42.41896 | 41° | 16km/h | 22424m | -9.7m/s | 0°C | 0% | 0hPa | 0V | 00:00:00 | 00:00:00 | 00:00:00 | |
| PU1XMG-16 | 2026-09-03 12:51:51 | -22.52085 | -42.41911 | 27° | 16km/h | 22481m | -9.3m/s | 0°C | 0% | 0hPa | 0V | 00:00:00 | 00:00:00 | 00:00:00 | |
| PU1XMG-16 | 2026-09-03 12:51:43 | -22.52106 | -42.41909 | 336° | 5km/h | 22557m | -9.4m/s | 0°C | 0% | 0hPa | 0V | 00:00:00 | 00:00:00 | 00:00:00 | |
| PU1XMG-16 | 2026-09-03 12:50:03 | -22.52538 | -42.41858 | 315° | 20km/h | 23584m | -10.6m/s | -56.3°C | 1.5% | 32.4hPa | 0V | 00:00:00 | 00:00:00 | 00:00:00 | |
| PU1XMG-16 | 2026-09-03 12:49:57 | -22.52558 | -42.41840 | 318° | 15km/h | 23648m | -11.1m/s | -56.1°C | 1.4% | 32.1hPa | 0V | 00:00:00 | 00:00:00 | 00:00:00 | |
| PU1XMG-16 | 2026-09-03 12:49:43 | -22.52617 | -42.41799 | 340° | 22km/h | 23798m | -10.9m/s | -56.5°C | 1.4% | 31.3hPa | 0V | 00:00:00 | 00:00:00 | 00:00:00 | |
| PU1XMG-16 | 2026-09-03 12:49:36 | -22.52642 | -42.41781 | 325° | 13km/h | 23874m | -11.1m/s | -56.8°C | 1.5% | 31.0hPa | 0V | 00:00:00 | 00:00:00 | 00:00:00 | |
| PU1XMG-16 | 2026-09-03 12:49:28 | -22.52659 | -42.41762 | 315° | 13km/h | 23962m | -11.2m/s | -56.5°C | 1.5% | 30.5hPa | 0V | 00:00:00 | 00:00:00 | 00:00:00 | |
| PU1XMG-16 | 2026-09-03 12:49:22 | -22.52671 | -42.41757 | 20° | 5km/h | 24030m | -11.4m/s | -56.3°C | 1.4% | 30.2hPa | 0V | 00:00:00 | 00:00:00 | 00:00:00 | |
| PU1XMG-16 | 2026-09-03 12:49:17 | -22.52678 | -42.41753 | 321° | 9km/h | 24096m | -11.4m/s | -55.9°C | 1.4% | 29.9hPa | 0V | 00:00:00 | 00:00:00 | 00:00:00 | |
| PU1XMG-16 | 2026-09-03 12:49:10 | -22.52692 | -42.41749 | 350° | 9km/h | 24163m | -11.1m/s | -56.0°C | 1.5% | 29.6hPa | 0V | 00:00:00 | 00:00:00 | 00:00:00 | |
| PU1XMG-16 | 2026-09-03 12:49:05 | -22.52703 | -42.41747 | 334° | 9km/h | 24218m | -11.5m/s | -55.8°C | 1.4% | 29.3hPa | 0V | 00:00:00 | 00:00:00 | 00:00:00 | |
| PU1XMG-16 | 2026-09-03 12:49:00 | -22.52716 | -42.41740 | 350° | 9km/h | 24275m | -12.1m/s | -55.5°C | 1.4% | 29.1hPa | 0V | 00:00:00 | 00:00:00 | 00:00:00 | |
| PU1XMG-16 | 2026-09-03 12:48:54 | -22.52726 | -42.41734 | 328° | 4km/h | 24345m | -11.5m/s | -55.6°C | 1.4% | 28.7hPa | 0V | 00:00:00 | 00:00:00 | 00:00:00 | |
| PU1XMG-16 | 2026-09-03 12:48:49 | -22.52727 | -42.41728 | 265° | 9km/h | 24402m | -12.1m/s | -55.4°C | 1.4% | 28.5hPa | 0V | 00:00:00 | 00:00:00 | 00:00:00 | |
| PU1XMG-16 | 2026-09-03 12:48:42 | -22.52722 | -42.41706 | 251° | 11km/h | 24497m | -11.6m/s | -54.8°C | 1.3% | 28.1hPa | 0V | 00:00:00 | 00:00:00 | 00:00:00 | |
| PU1XMG-16 | 2026-09-03 12:48:36 | -22.52718 | -42.41697 | 236° | 5km/h | 24556m | -12.4m/s | -54.9°C | 1.3% | 27.8hPa | 0V | 00:00:00 | 00:00:00 | 00:00:00 | |
| PU1XMG-16 | 2026-09-03 12:48:31 | -22.52715 | -42.41690 | 244° | 5km/h | 24617m | -12.2m/s | -54.9°C | 1.3% | 27.6hPa | 0V | 00:00:00 | 00:00:00 | 00:00:00 | |
| PU1XMG-16 | 2026-09-03 12:48:24 | -22.52710 | -42.41694 | 129° | 13km/h | 24700m | -11.8m/s | -55.3°C | 1.3% | 27.2hPa | 0V | 00:00:00 | 00:00:00 | 00:00:00 | |
| PU1XMG-16 | 2026-09-03 12:48:19 | -22.52699 | -42.41710 | 135° | 13km/h | 24761m | -12.0m/s | -55.3°C | 1.3% | 26.9hPa | 0V | 00:00:00 | 00:00:00 | 00:00:00 | |
| PU1XMG-16 | 2026-09-03 12:48:07 | -22.52665 | -42.41727 | 167° | 13km/h | 24918m | -12.4m/s | -55.6°C | 1.3% | 26.3hPa | 0V | 00:00:00 | 00:00:00 | 00:00:00 | |
| PU1XMG-16 | 2026-09-03 12:47:48 | -22.52586 | -42.41700 | 188° | 27km/h | 25152m | -12.4m/s | -56.5°C | 1.5% | 25.3hPa | 0V | 08:29:00 | 00:00:00 | 00:00:00 | |
| PU1XMG-16 | 2026-09-03 12:47:42 | -22.52545 | -42.41695 | 181° | 26km/h | 25228m | -12.8m/s | -56.4°C | 1.5% | 25.0hPa | 0V | 08:29:00 | 00:00:00 | 00:00:00 | |
| PU1XMG-16 | 2026-09-03 12:47:17 | -22.52406 | -42.41757 | 137° | 24km/h | 25551m | -13.6m/s | -54.0°C | 1.3% | 23.8hPa | 0V | 08:29:00 | 00:00:00 | 00:00:00 | |
| PU1XMG-16 | 2026-09-03 12:47:06 | -22.52377 | -42.41795 | 162° | 15km/h | 25686m | -13.7m/s | -53.3°C | 1.3% | 23.2hPa | 0V | 08:29:00 | 00:00:00 | 00:00:00 | |
| PU1XMG-16 | 2026-09-03 12:47:00 | -22.52357 | -42.41808 | 124° | 16km/h | 25768m | -14.2m/s | -53.0°C | 1.3% | 23.0hPa | 0V | 00:00:00 | 00:00:00 | 00:00:00 | |
| PU1XMG-16 | 2026-09-03 12:46:54 | -22.52347 | -42.41842 | 93° | 22km/h | 25852m | -14.3m/s | -52.6°C | 1.2% | 22.7hPa | 0V | 00:00:00 | 00:00:00 | 00:00:00 | |
| PU1XMG-16 | 2026-09-03 12:46:47 | -22.52344 | -42.41869 | 116° | 11km/h | 25952m | -14.9m/s | -52.4°C | 1.2% | 22.3hPa | 0V | 00:00:00 | 00:00:00 | 00:00:00 | |
| PU1XMG-16 | 2026-09-03 12:46:42 | -22.52335 | -42.41891 | 105° | 18km/h | 26043m | -15.6m/s | -52.6°C | 1.2% | 22.0hPa | 0V | 00:00:00 | 00:00:00 | 00:00:00 | |
| PU1XMG-16 | 2026-09-03 12:46:29 | -22.52324 | -42.41951 | 114° | 27km/h | 26231m | -15.7m/s | -52.2°C | 1.2% | 21.3hPa | 0V | 00:00:00 | 00:00:00 | 00:00:00 | |
| PU1XMG-16 | 2026-09-03 12:46:23 | -22.52306 | -42.41975 | 203° | 7km/h | 26327m | -16.0m/s | -51.7°C | 1.2% | 21.0hPa | 0V | 00:00:00 | 00:00:00 | 00:00:00 | |
| PU1XMG-16 | 2026-09-03 12:46:18 | -22.52317 | -42.41979 | 66° | 35km/h | 26430m | -29.5m/s | -51.1°C | 1.1% | 20.8hPa | 0V | 00:00:00 | 00:00:00 | 00:00:00 | |
| PU1XMG-16 | 2026-09-03 12:46:12 | -22.52340 | -42.42032 | 70° | 33km/h | 26469m | 7.3m/s | -51.1°C | 1.1% | 20.5hPa | 0V | 00:00:00 | 00:00:00 | 00:00:00 | |
| PU1XMG-16 | 2026-09-03 12:46:06 | -22.52345 | -42.42059 | 100° | 11km/h | 26436m | 5.5m/s | -51.0°C | 1.1% | 20.7hPa | 0V | 00:00:00 | 00:00:00 | 00:00:00 | |
| PU1XMG-16 | 2026-09-03 12:45:59 | -22.52363 | -42.42094 | 67° | 27km/h | 26394m | 5.2m/s | -51.2°C | 1.1% | 20.8hPa | 0V | 00:00:00 | 00:00:00 | 00:00:00 | |
| PU1XMG-16 | 2026-09-03 12:45:54 | -22.52366 | -42.42130 | 129° | 22km/h | 26361m | 7.1m/s | -51.7°C | 1.1% | 20.9hPa | 0V | 00:00:00 | 00:00:00 | 00:00:00 | |
| PU1XMG-16 | 2026-09-03 12:45:48 | -22.52347 | -42.42150 | 120° | 9km/h | 26323m | 7.7m/s | -52.0°C | 1.1% | 21.0hPa | 0V | 00:00:00 | 00:00:00 | 00:00:00 | |
| PU1XMG-16 | 2026-09-03 12:45:43 | -22.52349 | -42.42167 | 89° | 22km/h | 26292m | 3.6m/s | -52.1°C | 1.2% | 21.1hPa | 0V | 00:00:00 | 00:00:00 | 00:00:00 | |
| PU1XMG-16 | 2026-09-03 12:45:35 | -22.52329 | -42.42198 | 141° | 13km/h | 26242m | 4.0m/s | -52.1°C | 1.1% | 21.3hPa | 0V | 00:00:00 | 00:00:00 | 00:00:00 | |
| PU1XMG-16 | 2026-09-03 12:45:29 | -22.52324 | -42.42226 | 100° | 24km/h | 26202m | 5.6m/s | -52.1°C | 1.2% | 21.4hPa | 0V | 00:00:00 | 00:00:00 | 00:00:00 | |
| PU1XMG-16 | 2026-09-03 12:45:22 | -22.52313 | -42.42263 | 123° | 18km/h | 26157m | 7.3m/s | -52.3°C | 1.2% | 21.6hPa | 0V | 00:00:00 | 00:00:00 | 00:00:00 | |
| PU1XMG-16 | 2026-09-03 12:45:18 | -22.52309 | -42.42294 | 82° | 24km/h | 26117m | 8.2m/s | -52.5°C | 1.2% | 21.7hPa | 0V | 00:00:00 | 00:00:00 | 00:00:00 | |
| PU1XMG-16 | 2026-09-03 12:45:09 | -22.52306 | -42.42330 | 157° | 16km/h | 26065m | 8.0m/s | -52.6°C | 1.2% | 21.9hPa | 0V | 00:00:00 | 00:00:00 | 00:00:00 | |
| PU1XMG-16 | 2026-09-03 12:45:01 | -22.52290 | -42.42349 | 77° | 16km/h | 26011m | 8.0m/s | -52.3°C | 1.1% | 22.1hPa | 0V | 00:00:00 | 00:00:00 | 00:00:00 | |
| PU1XMG-16 | 2026-09-03 12:44:49 | -22.52283 | -42.42383 | 86° | 7km/h | 25940m | 5.2m/s | -52.6°C | 1.2% | 22.3hPa | 0V | 00:00:00 | 00:00:00 | 00:00:00 | |
| PU1XMG-16 | 2026-09-03 12:44:44 | -22.52290 | -42.42408 | 71° | 22km/h | 25906m | 7.2m/s | -52.5°C | 1.2% | 22.4hPa | 0V | 00:00:00 | 00:00:00 | 00:00:00 | |
| PU1XMG-16 | 2026-09-03 12:44:33 | -22.52282 | -42.42467 | 91° | 16km/h | 25831m | 7.3m/s | -52.7°C | 1.1% | 22.7hPa | 0V | 00:00:00 | 00:00:00 | 00:00:00 | |
| PU1XMG-16 | 2026-09-03 12:43:50 | -22.52163 | -42.42596 | 127° | 27km/h | 25560m | 6.9m/s | -53.7°C | 1.2% | 23.7hPa | 0V | 00:00:00 | 00:00:00 | 00:00:00 | |
| PU1XMG-16 | 2026-09-03 12:43:35 | -22.52090 | -42.42653 | 138° | 20km/h | 25461m | 8.9m/s | -54.4°C | 1.3% | 24.1hPa | 0V | 00:00:00 | 00:00:00 | 00:00:00 | |
| PU1XMG-16 | 2026-09-03 12:43:30 | -22.52073 | -42.42672 | 150° | 20km/h | 25428m | 6.4m/s | -54.5°C | 1.3% | 24.2hPa | 0V | 00:00:00 | 00:00:00 | 00:00:00 | |
| PU1XMG-16 | 2026-09-03 12:43:19 | -22.51997 | -42.42685 | 161° | 20km/h | 25358m | 5.4m/s | -55.7°C | 1.4% | 24.5hPa | 0V | 00:00:00 | 00:00:00 | 00:00:00 | |
| PU1XMG-16 | 2026-09-03 12:42:59 | -22.51870 | -42.42708 | 188° | 37km/h | 25220m | 6.6m/s | -56.0°C | 1.4% | 25.0hPa | 0V | 00:00:00 | 00:00:00 | 00:00:00 | |
| PU1XMG-16 | 2026-09-03 12:39:57 | -22.51617 | -42.42508 | 312° | 9km/h | 24061m | 5.9m/s | -55.2°C | 1.3% | 30.0hPa | 0V | 00:00:00 | 00:00:00 | 00:00:00 | |
| PU1XMG-16 | 2026-09-03 12:39:49 | -22.51624 | -42.42499 | 8° | 4km/h | 24009m | 3.8m/s | -55.5°C | 1.3% | 30.3hPa | 0V | 00:00:00 | 00:00:00 | 00:00:00 | |
| PU1XMG-16 | 2026-09-03 12:39:40 | -22.51640 | -42.42492 | 299° | 13km/h | 23953m | 6.8m/s | -55.6°C | 1.4% | 30.5hPa | 0V | 00:00:00 | 00:00:00 | 00:00:00 | |
| PU1XMG-16 | 2026-09-03 12:39:33 | -22.51646 | -42.42474 | 289° | 7km/h | 23909m | 5.5m/s | -55.8°C | 1.3% | 30.8hPa | 0V | 00:00:00 | 00:00:00 | 00:00:00 | |
| PU1XMG-16 | 2026-09-03 12:39:27 | -22.51656 | -42.42462 | 287° | 11km/h | 23872m | 5.8m/s | -55.8°C | 1.4% | 30.9hPa | 0V | 00:00:00 | 00:00:00 | 00:00:00 | |
| PU1XMG-16 | 2026-09-03 12:39:21 | -22.51659 | -42.42445 | 269° | 15km/h | 23835m | 5.1m/s | -55.9°C | 1.4% | 31.1hPa | 0V | 00:00:00 | 00:00:00 | 00:00:00 | |
| PU1XMG-16 | 2026-09-03 12:39:15 | -22.51673 | -42.42419 | 322° | 15km/h | 23791m | 7.9m/s | -56.0°C | 1.5% | 31.3hPa | 0V | 00:00:00 | 00:00:00 | 00:00:00 | |
| PU1XMG-16 | 2026-09-03 12:39:09 | -22.51687 | -42.42408 | 336° | 16km/h | 23751m | 5.3m/s | -55.8°C | 1.4% | 31.5hPa | 0V | 00:00:00 | 00:00:00 | 00:00:00 | |
| PU1XMG-16 | 2026-09-03 12:39:02 | -22.51715 | -42.42386 | 329° | 16km/h | 23708m | 5.7m/s | -55.5°C | 1.4% | 31.8hPa | 0V | 00:00:00 | 00:00:00 | 00:00:00 | |
| PU1XMG-16 | 2026-09-03 12:38:50 | -22.51749 | -42.42349 | 304° | 22km/h | 23641m | 5.7m/s | -55.5°C | 1.4% | 32.1hPa | 0V | 00:00:00 | 00:00:00 | 00:00:00 | |
| PU1XMG-16 | 2026-09-03 12:38:43 | -22.51754 | -42.42323 | 326° | 7km/h | 23599m | 5.7m/s | -55.6°C | 1.4% | 32.3hPa | 0V | 00:00:00 | 00:00:00 | 00:00:00 | |
| PU1XMG-16 | 2026-09-03 12:38:38 | -22.51766 | -42.42311 | 316° | 16km/h | 23567m | 6.4m/s | -55.7°C | 1.4% | 32.5hPa | 0V | 00:00:00 | 00:00:00 | 00:00:00 | |
| PU1XMG-16 | 2026-09-03 12:38:32 | -22.51778 | -42.42278 | 292° | 24km/h | 23529m | 5.2m/s | -55.8°C | 1.5% | 32.7hPa | 0V | 00:00:00 | 00:00:00 | 00:00:00 | |
| PU1XMG-16 | 2026-09-03 12:38:26 | -22.51792 | -42.42240 | 292° | 22km/h | 23492m | 4.9m/s | -55.7°C | 1.4% | 32.9hPa | 0V | 00:00:00 | 00:00:00 | 00:00:00 | |
| PU1XMG-16 | 2026-09-03 12:38:15 | -22.51821 | -42.42193 | 316° | 22km/h | 23424m | 6.3m/s | -55.1°C | 1.4% | 33.2hPa | 0V | 00:00:00 | 00:00:00 | 00:00:00 | |
| PU1XMG-16 | 2026-09-03 12:38:10 | -22.51847 | -42.42167 | 331° | 20km/h | 23384m | 5.0m/s | -54.8°C | 1.3% | 33.4hPa | 0V | 00:00:00 | 00:00:00 | 00:00:00 | |
| PU1XMG-16 | 2026-09-03 12:32:18 | -22.52708 | -42.42926 | 196° | 5km/h | 21227m | 4.1m/s | -60.7°C | 1.8% | 47.2hPa | 0V | 00:00:00 | 00:00:00 | 00:00:00 | |
| PU1XMG-16 | 2026-09-03 12:32:00 | -22.52684 | -42.42927 | 199° | 13km/h | 21122m | 7.5m/s | -60.5°C | 1.8% | 48.0hPa | 0V | 00:00:00 | 00:00:00 | 00:00:00 | |
| PU1XMG-16 | 2026-09-03 12:31:48 | -22.52658 | -42.42916 | 222° | 7km/h | 21044m | 5.3m/s | -59.9°C | 1.7% | 48.6hPa | 0V | 00:00:00 | 00:00:00 | 00:00:00 | |
| PU1XMG-16 | 2026-09-03 12:31:35 | -22.52637 | -42.42894 | 230° | 7km/h | 20963m | 5.9m/s | -59.9°C | 1.6% | 49.3hPa | 0V | 00:00:00 | 00:00:00 | 00:00:00 | |
| PU1XMG-16 | 2026-09-03 12:31:26 | -22.52633 | -42.42889 | 123° | 11km/h | 20907m | 5.0m/s | -61.7°C | 1.8% | 49.7hPa | 0V | 00:00:00 | 00:00:00 | 00:00:00 | |
| PU1XMG-16 | 2026-09-03 12:31:16 | -22.52636 | -42.42918 | 91° | 15km/h | 20843m | 3.9m/s | -62.1°C | 1.9% | 50.2hPa | 0V | 00:00:00 | 00:00:00 | 00:00:00 | |
| PU1XMG-16 | 2026-09-03 12:31:01 | -22.52630 | -42.42970 | 97° | 15km/h | 20753m | 4.8m/s | -62.0°C | 2.0% | 51.0hPa | 0V | 00:00:00 | 00:00:00 | 00:00:00 | |
| PU1XMG-16 | 2026-09-03 12:30:55 | -22.52618 | -42.42981 | 147° | 9km/h | 20717m | 4.5m/s | -61.8°C | 1.9% | 51.2hPa | 0V | 00:00:00 | 00:00:00 | 00:00:00 | |
| PU1XMG-16 | 2026-09-03 12:30:48 | -22.52615 | -42.42991 | 78° | 13km/h | 20682m | 3.6m/s | -61.9°C | 2.0% | 51.5hPa | 0V | 00:00:00 | 00:00:00 | 00:00:00 | |
| PU1XMG-16 | 2026-09-03 12:30:41 | -22.52611 | -42.43003 | 162° | 7km/h | 20633m | 7.3m/s | -61.8°C | 1.9% | 51.9hPa | 0V | 00:00:00 | 00:00:00 | 00:00:00 | |
| PU1XMG-16 | 2026-09-03 12:30:36 | -22.52617 | -42.43008 | 27° | 16km/h | 20599m | 9.1m/s | -61.9°C | 1.9% | 52.2hPa | 0V | 00:00:00 | 00:00:00 | 00:00:00 | |
| PU1XMG-16 | 2026-09-03 12:30:31 | -22.52634 | -42.43018 | 45° | 9km/h | 20567m | 4.7m/s | -62.3°C | 1.9% | 52.5hPa | 0V | 00:00:00 | 00:00:00 | 00:00:00 | |
| PU1XMG-16 | 2026-09-03 12:30:25 | -22.52634 | -42.43020 | 249° | 4km/h | 20528m | 3.2m/s | -62.7°C | 1.9% | 52.9hPa | 0V | 00:00:00 | 00:00:00 | 00:00:00 | |
| PU1XMG-16 | 2026-09-03 12:30:18 | -22.52644 | -42.43021 | 31° | 11km/h | 20490m | 8.9m/s | -62.8°C | 2.0% | 53.2hPa | 0V | 00:00:00 | 00:00:00 | 00:00:00 | |
| PU1XMG-16 | 2026-09-03 12:30:13 | -22.52644 | -42.43029 | 131° | 4km/h | 20453m | 9.0m/s | -62.9°C | 2.0% | 53.5hPa | 0V | 00:00:00 | 00:00:00 | 00:00:00 | |
| PU1XMG-16 | 2026-09-03 12:30:06 | -22.52648 | -42.43035 | 56° | 13km/h | 20405m | 4.9m/s | 0°C | 0% | 53.9hPa | 0V | 00:00:00 | 00:00:00 | 00:00:00 | |
| PU1XMG-16 | 2026-09-03 12:30:00 | -22.52660 | -42.43051 | 45° | 16km/h | 20373m | 6.5m/s | 0°C | 0% | 54.2hPa | 0V | 00:00:00 | 00:00:00 | 00:00:00 | |
| PU1XMG-16 | 2026-09-03 12:29:55 | -22.52674 | -42.43061 | 38° | 5km/h | 20334m | 6.5m/s | 0°C | 0% | 54.6hPa | 0V | 00:00:00 | 00:00:00 | 00:00:00 | |
| PU1XMG-16 | 2026-09-03 12:29:49 | -22.52683 | -42.43073 | 61° | 18km/h | 20291m | 4.6m/s | 0°C | 0% | 0hPa | 0V | 00:00:00 | 00:00:00 | 00:00:00 | |
| PU1XMG-16 | 2026-09-03 12:29:42 | -22.52695 | -42.43098 | 65° | 16km/h | 20255m | 6.9m/s | 0°C | 0% | 0hPa | 0V | 00:00:00 | 00:00:00 | 00:00:00 | |
| PU1XMG-16 | 2026-09-03 12:29:38 | -22.52706 | -42.43120 | 55° | 22km/h | 20222m | 2.5m/s | 0°C | 0% | 0hPa | 0V | 00:00:00 | 00:00:00 | 00:00:00 | |
| PU1XMG-16 | 2026-09-03 12:29:30 | -22.52730 | -42.43162 | 65° | 27km/h | 20176m | 9.3m/s | 0°C | 0% | 0hPa | 0V | 00:00:00 | 00:00:00 | 00:00:00 | |
| PU1XMG-16 | 2026-09-03 12:29:24 | -22.52740 | -42.43201 | 81° | 22km/h | 20138m | 4.8m/s | 0°C | 0% | 0hPa | 0V | 00:00:00 | 00:00:00 | 00:00:00 | |
| PU1XMG-16 | 2026-09-03 12:29:18 | -22.52755 | -42.43245 | 71° | 20km/h | 20089m | 4.9m/s | 0°C | 0% | 0hPa | 0V | 00:00:00 | 00:00:00 | 00:00:00 | |
| PU1XMG-16 | 2026-09-03 12:29:11 | -22.52758 | -42.43274 | 97° | 24km/h | 20054m | 10.0m/s | 0°C | 0% | 0hPa | 0V | 00:00:00 | 00:00:00 | 00:00:00 | |
| PU1XMG-16 | 2026-09-03 12:27:29 | -22.53080 | -42.43595 | 36° | 33km/h | 19394m | 9.0m/s | -60.7°C | 2.0% | 63.6hPa | 0V | 00:00:00 | 00:00:00 | 00:00:00 | |
| PU1XMG-16 | 2026-09-03 12:27:20 | -22.53131 | -42.43645 | 38° | 38km/h | 19342m | 11.9m/s | -60.3°C | 2.0% | 64.1hPa | 0V | 00:00:00 | 00:00:00 | 00:00:00 | |
| PU1XMG-16 | 2026-09-03 12:27:15 | -22.53182 | -42.43693 | 55° | 27km/h | 19291m | 5.6m/s | -60.2°C | 1.9% | 64.5hPa | 0V | 00:00:00 | 00:00:00 | 00:00:00 | |
| PU1XMG-16 | 2026-09-03 12:27:09 | -22.53199 | -42.43717 | 52° | 33km/h | 19266m | 6.0m/s | -60.9°C | 2.0% | 64.9hPa | 0V | 00:00:00 | 00:00:00 | 00:00:00 | |
| PU1XMG-16 | 2026-09-03 12:27:02 | -22.53232 | -42.43762 | 62° | 35km/h | 19226m | 4.3m/s | -61.0°C | 2.1% | 65.3hPa | 0V | 00:00:00 | 00:00:00 | 00:00:00 | |
| PU1XMG-16 | 2026-09-03 12:26:55 | -22.53256 | -42.43819 | 72° | 33km/h | 19179m | 7.4m/s | -61.0°C | 2.2% | 65.8hPa | 0V | 00:00:00 | 00:00:00 | 00:00:00 | |
| PU1XMG-16 | 2026-09-03 12:26:50 | -22.53270 | -42.43867 | 77° | 37km/h | 19148m | 4.4m/s | -61.0°C | 2.1% | 66.1hPa | 0V | 00:00:00 | 00:00:00 | 00:00:00 | |
| PU1XMG-16 | 2026-09-03 12:26:45 | -22.53282 | -42.43924 | 78° | 31km/h | 19111m | 4.4m/s | -61.4°C | 2.2% | 66.5hPa | 0V | 00:00:00 | 00:00:00 | 00:00:00 | |
| PU1XMG-16 | 2026-09-03 12:26:39 | -22.53291 | -42.43971 | 80° | 35km/h | 19077m | 7.2m/s | -61.9°C | 2.2% | 66.9hPa | 0V | 00:00:00 | 00:00:00 | 00:00:00 | |
| PU1XMG-16 | 2026-09-03 12:26:26 | -22.53299 | -42.44099 | 93° | 37km/h | 19001m | 9.7m/s | -63.1°C | 2.4% | 67.7hPa | 0V | 00:00:00 | 00:00:00 | 00:00:00 | |
| PU1XMG-16 | 2026-09-03 12:26:20 | -22.53298 | -42.44171 | 96° | 49km/h | 18962m | 9.9m/s | -63.7°C | 2.8% | 68.2hPa | 0V | 00:00:00 | 00:00:00 | 00:00:00 | |
| PU1XMG-16 | 2026-09-03 12:26:15 | -22.53281 | -42.44229 | 115° | 44km/h | 18929m | 5.1m/s | -63.5°C | 2.7% | 68.5hPa | 0V | 00:00:00 | 00:00:00 | 00:00:00 | |
| PU1XMG-16 | 2026-09-03 12:26:10 | -22.53258 | -42.44280 | 112° | 40km/h | 18896m | 8.7m/s | -63.5°C | 2.8% | 68.9hPa | 0V | 00:00:00 | 00:00:00 | 00:00:00 | |
| PU1XMG-16 | 2026-09-03 12:25:57 | -22.53203 | -42.44424 | 124° | 40km/h | 18800m | 8.2m/s | -63.5°C | 2.8% | 69.9hPa | 0V | 00:00:00 | 00:00:00 | 00:00:00 | |
| PU1XMG-16 | 2026-09-03 12:25:50 | -22.53183 | -42.44486 | 105° | 44km/h | 18759m | 8.2m/s | -63.8°C | 3.0% | 70.4hPa | 0V | 00:00:00 | 00:00:00 | 00:00:00 | |
| PU1XMG-16 | 2026-09-03 12:25:45 | -22.53172 | -42.44560 | 96° | 47km/h | 18717m | 8.9m/s | -63.8°C | 3.0% | 70.8hPa | 0V | 00:00:00 | 00:00:00 | 00:00:00 | |
| PU1XMG-16 | 2026-09-03 12:25:37 | -22.53173 | -42.44650 | 89° | 53km/h | 18673m | 5.0m/s | -63.7°C | 3.1% | 71.4hPa | 0V | 00:00:00 | 00:00:00 | 00:00:00 | |
| PU1XMG-16 | 2026-09-03 12:25:31 | -22.53172 | -42.44738 | 93° | 55km/h | 18638m | 4.1m/s | -63.7°C | 3.3% | 71.8hPa | 0V | 00:00:00 | 00:00:00 | 00:00:00 | |
| PU1XMG-16 | 2026-09-03 12:25:25 | -22.53176 | -42.44831 | 83° | 57km/h | 18600m | 4.6m/s | -63.5°C | 3.4% | 72.3hPa | 0V | 00:00:00 | 00:00:00 | 00:00:00 | |
| PU1XMG-16 | 2026-09-03 12:25:19 | -22.53188 | -42.44917 | 85° | 49km/h | 18562m | 3.8m/s | -63.7°C | 3.3% | 72.7hPa | 0V | 00:00:00 | 00:00:00 | 00:00:00 | |
| PU1XMG-16 | 2026-09-03 12:25:13 | -22.53191 | -42.45014 | 90° | 64km/h | 18525m | 3.5m/s | -63.7°C | 3.6% | 73.2hPa | 0V | 00:00:00 | 00:00:00 | 00:00:00 | |
| PU1XMG-16 | 2026-09-03 12:25:09 | -22.53190 | -42.45097 | 91° | 58km/h | 18495m | 7.1m/s | -64.0°C | 3.6% | 73.5hPa | 0V | 00:00:00 | 00:00:00 | 00:00:00 | |
| PU1XMG-16 | 2026-09-03 12:24:59 | -22.53208 | -42.45262 | 82° | 68km/h | 18429m | 8.1m/s | -64.7°C | 3.9% | 74.3hPa | 0V | 00:00:00 | 00:00:00 | 00:00:00 | |
| PU1XMG-16 | 2026-09-03 12:24:34 | -22.53225 | -42.45720 | 97° | 73km/h | 18286m | 4.6m/s | -66.5°C | 4.4% | 76.1hPa | 0V | 00:00:00 | 00:00:00 | 00:00:00 | |
| PU1XMG-16 | 2026-09-03 12:24:28 | -22.53211 | -42.45849 | 100° | 84km/h | 18247m | 3.8m/s | -66.9°C | 4.7% | 76.6hPa | 0V | 00:00:00 | 00:00:00 | 00:00:00 | |
| PU1XMG-16 | 2026-09-03 12:24:23 | -22.53189 | -42.45972 | 106° | 69km/h | 18209m | 4.9m/s | -67.5°C | 4.6% | 77.0hPa | 0V | 00:00:00 | 00:00:00 | 00:00:00 | |
| PU1XMG-16 | 2026-09-03 12:24:17 | -22.53164 | -42.46070 | 106° | 82km/h | 18179m | 5.2m/s | -68.8°C | 5.0% | 77.5hPa | 0V | 00:00:00 | 00:00:00 | 00:00:00 | |
| PU1XMG-16 | 2026-09-03 12:24:12 | -22.53136 | -42.46173 | 113° | 75km/h | 18151m | 6.7m/s | -69.1°C | 5.2% | 77.9hPa | 0V | 00:00:00 | 00:00:00 | 00:00:00 | |
| PU1XMG-16 | 2026-09-03 12:24:07 | -22.53094 | -42.46273 | 116° | 66km/h | 18112m | 7.6m/s | -69.6°C | 5.1% | 78.3hPa | 0V | 00:00:00 | 00:00:00 | 00:00:00 | |
| PU1XMG-16 | 2026-09-03 12:24:02 | -22.53056 | -42.46352 | 121° | 62km/h | 18083m | 3.7m/s | -70.2°C | 5.3% | 78.8hPa | 0V | 00:00:00 | 00:00:00 | 00:00:00 | |
| PU1XMG-16 | 2026-09-03 12:23:55 | -22.53016 | -42.46432 | 111° | 49km/h | 18040m | 4.4m/s | -71.3°C | 6.1% | 79.3hPa | 0V | 00:00:00 | 00:00:00 | 00:00:00 | |
| PU1XMG-16 | 2026-09-03 12:23:49 | -22.52995 | -42.46523 | 103° | 46km/h | 17998m | 7.7m/s | -71.1°C | 6.1% | 79.8hPa | 0V | 00:00:00 | 00:00:00 | 00:00:00 | |
| PU1XMG-16 | 2026-09-03 12:23:44 | -22.52980 | -42.46583 | 107° | 46km/h | 17965m | 5.2m/s | -71.2°C | 5.9% | 80.3hPa | 0V | 00:00:00 | 00:00:00 | 00:00:00 | |
| PU1XMG-16 | 2026-09-03 12:23:39 | -22.52964 | -42.46644 | 106° | 49km/h | 17932m | 5.6m/s | -71.1°C | 6.0% | 80.7hPa | 0V | 00:00:00 | 00:00:00 | 00:00:00 | |
| PU1XMG-16 | 2026-09-03 12:23:34 | -22.52944 | -42.46706 | 114° | 51km/h | 17899m | 5.8m/s | -71.0°C | 5.9% | 81.1hPa | 0V | 00:00:00 | 00:00:00 | 00:00:00 | |
| PU1XMG-16 | 2026-09-03 12:23:27 | -22.52912 | -42.46787 | 112° | 55km/h | 17861m | 5.2m/s | -71.0°C | 5.9% | 81.7hPa | 0V | 00:00:00 | 00:00:00 | 00:00:00 | |
| PU1XMG-16 | 2026-09-03 12:23:21 | -22.52881 | -42.46871 | 116° | 58km/h | 17824m | 6.9m/s | -70.8°C | 5.9% | 82.2hPa | 0V | 00:00:00 | 00:00:00 | 00:00:00 | |
| PU1XMG-16 | 2026-09-03 12:23:15 | -22.52838 | -42.46960 | 118° | 62km/h | 17790m | 6.4m/s | -70.6°C | 5.7% | 82.7hPa | 0V | 00:00:00 | 00:00:00 | 00:00:00 | |
| PU1XMG-16 | 2026-09-03 12:23:10 | -22.52804 | -42.47034 | 115° | 57km/h | 17759m | 3.1m/s | -70.3°C | 5.8% | 83.1hPa | 0V | 00:00:00 | 00:00:00 | 00:00:00 | |
| PU1XMG-16 | 2026-09-03 12:23:05 | -22.52771 | -42.47105 | 120° | 58km/h | 17730m | 9.1m/s | -70.1°C | 5.7% | 83.5hPa | 0V | 00:00:00 | 00:00:00 | 00:00:00 | |
| PU1XMG-16 | 2026-09-03 12:23:01 | -22.52735 | -42.47173 | 121° | 55km/h | 17699m | 6.3m/s | -70.0°C | 5.8% | 84.0hPa | 0V | 00:00:00 | 00:00:00 | 00:00:00 | |
| PU1XMG-16 | 2026-09-03 12:22:54 | -22.52693 | -42.47249 | 119° | 55km/h | 17658m | 5.6m/s | -69.6°C | 5.7% | 84.6hPa | 0V | 00:00:00 | 00:00:00 | 00:00:00 | |
| PU1XMG-16 | 2026-09-03 12:22:50 | -22.52664 | -42.47312 | 114° | 49km/h | 17621m | 8.2m/s | -69.3°C | 5.5% | 85.1hPa | 0V | 00:00:00 | 00:00:00 | 00:00:00 | |
| PU1XMG-16 | 2026-09-03 12:22:45 | -22.52641 | -42.47371 | 116° | 46km/h | 17585m | 5.1m/s | -69.0°C | 5.5% | 85.6hPa | 0V | 00:00:00 | 00:00:00 | 00:00:00 | |
| PU1XMG-16 | 2026-09-03 12:22:39 | -22.52613 | -42.47440 | 113° | 47km/h | 17544m | 4.4m/s | -68.8°C | 5.5% | 86.2hPa | 0V | 00:00:00 | 00:00:00 | 00:00:00 | |
| PU1XMG-16 | 2026-09-03 12:22:33 | -22.52589 | -42.47507 | 111° | 42km/h | 17505m | 4.4m/s | -68.6°C | 5.5% | 86.8hPa | 0V | 00:00:00 | 00:00:00 | 00:00:00 | |
| PU1XMG-16 | 2026-09-03 12:22:28 | -22.52572 | -42.47561 | 110° | 42km/h | 17474m | 7.1m/s | -68.4°C | 5.4% | 87.2hPa | 0V | 00:00:00 | 00:00:00 | 00:00:00 | |
| PU1XMG-16 | 2026-09-03 12:22:22 | -22.52551 | -42.47617 | 114° | 46km/h | 17444m | 4.5m/s | -68.1°C | 5.3% | 87.7hPa | 0V | 00:00:00 | 00:00:00 | 00:00:00 | |
| PU1XMG-16 | 2026-09-03 12:22:17 | -22.52530 | -42.47671 | 112° | 44km/h | 17411m | 8.4m/s | -68.0°C | 5.4% | 88.1hPa | 0V | 00:00:00 | 00:00:00 | 00:00:00 | |
| PU1XMG-16 | 2026-09-03 12:22:11 | -22.52502 | -42.47736 | 122° | 44km/h | 17375m | 6.6m/s | -67.7°C | 5.2% | 88.7hPa | 0V | 00:00:00 | 00:00:00 | 00:00:00 | |
| PU1XMG-16 | 2026-09-03 12:22:07 | -22.52473 | -42.47780 | 127° | 37km/h | 17342m | 4.2m/s | -68.2°C | 5.5% | 89.2hPa | 0V | 00:00:00 | 00:00:00 | 00:00:00 | |
| PU1XMG-16 | 2026-09-03 12:22:01 | -22.52451 | -42.47839 | 107° | 38km/h | 17307m | 5.0m/s | -67.8°C | 5.8% | 89.7hPa | 0V | 00:00:00 | 00:00:00 | 00:00:00 | |
| PU1XMG-16 | 2026-09-03 12:21:55 | -22.52431 | -42.47893 | 117° | 33km/h | 17264m | 5.7m/s | -67.5°C | 5.6% | 90.3hPa | 0V | 00:00:00 | 00:00:00 | 00:00:00 | |
| PU1XMG-16 | 2026-09-03 12:21:49 | -22.52415 | -42.47947 | 100° | 38km/h | 17229m | 7.0m/s | -67.4°C | 5.7% | 90.8hPa | 0V | 00:00:00 | 00:00:00 | 00:00:00 | |
| PU1XMG-16 | 2026-09-03 12:21:43 | -22.52401 | -42.48004 | 113° | 33km/h | 17193m | 7.9m/s | -67.3°C | 5.7% | 91.4hPa | 0V | 00:00:00 | 00:00:00 | 00:00:00 | |
| PU1XMG-16 | 2026-09-03 12:21:38 | -22.52385 | -42.48046 | 106° | 31km/h | 17160m | 5.0m/s | -67.1°C | 5.6% | 91.9hPa | 0V | 00:00:00 | 00:00:00 | 00:00:00 | |
| PU1XMG-16 | 2026-09-03 12:21:32 | -22.52376 | -42.48090 | 103° | 37km/h | 17127m | 7.5m/s | -67.1°C | 5.7% | 92.3hPa | 0V | 00:00:00 | 00:00:00 | 00:00:00 | |
| PU1XMG-16 | 2026-09-03 12:21:27 | -22.52360 | -42.48149 | 112° | 35km/h | 17091m | 7.5m/s | -66.9°C | 5.8% | 92.9hPa | 0V | 00:00:00 | 00:00:00 | 00:00:00 | |
| PU1XMG-16 | 2026-09-03 12:21:21 | -22.52344 | -42.48186 | 111° | 29km/h | 17061m | 8.1m/s | -66.9°C | 5.8% | 93.3hPa | 0V | 00:00:00 | 00:00:00 | 00:00:00 | |
| PU1XMG-16 | 2026-09-03 12:21:15 | -22.52337 | -42.48247 | 98° | 42km/h | 17022m | 6.7m/s | -67.5°C | 6.1% | 94.0hPa | 0V | 00:00:00 | 00:00:00 | 00:00:00 | |
| PU1XMG-16 | 2026-09-03 12:21:10 | -22.52331 | -42.48307 | 97° | 42km/h | 16987m | 4.9m/s | -67.4°C | 6.3% | 94.5hPa | 0V | 00:00:00 | 00:00:00 | 00:00:00 | |
| PU1XMG-16 | 2026-09-03 12:21:05 | -22.52327 | -42.48358 | 92° | 35km/h | 16955m | 7.1m/s | -67.2°C | 6.3% | 95.0hPa | 0V | 00:00:00 | 00:00:00 | 00:00:00 | |
| PU1XMG-16 | 2026-09-03 12:20:59 | -22.52326 | -42.48418 | 92° | 37km/h | 16919m | 5.4m/s | -67.1°C | 6.7% | 95.6hPa | 0V | 00:00:00 | 00:00:00 | 00:00:00 | |
| PU1XMG-16 | 2026-09-03 12:20:54 | -22.52329 | -42.48463 | 82° | 29km/h | 16886m | 6.6m/s | -66.8°C | 6.5% | 96.1hPa | 0V | 00:00:00 | 00:00:00 | 00:00:00 | |
| PU1XMG-16 | 2026-09-03 12:20:49 | -22.52331 | -42.48515 | 89° | 35km/h | 16852m | 7.4m/s | -66.8°C | 6.5% | 96.7hPa | 0V | 00:00:00 | 00:00:00 | 00:00:00 | |
| PU1XMG-16 | 2026-09-03 12:20:42 | -22.52337 | -42.48562 | 80° | 24km/h | 16814m | 8.5m/s | -66.9°C | 6.7% | 97.3hPa | 0V | 00:00:00 | 00:00:00 | 00:00:00 | |
| PU1XMG-16 | 2026-09-03 12:20:38 | -22.52346 | -42.48589 | 69° | 22km/h | 16782m | 7.4m/s | -67.1°C | 6.7% | 97.8hPa | 0V | 00:00:00 | 00:00:00 | 00:00:00 | |
| PU1XMG-16 | 2026-09-03 12:20:32 | -22.52360 | -42.48631 | 74° | 27km/h | 16743m | 8.4m/s | -67.1°C | 6.9% | 98.4hPa | 0V | 00:00:00 | 00:00:00 | 00:00:00 | |
| PU1XMG-16 | 2026-09-03 12:20:26 | -22.52372 | -42.48671 | 73° | 38km/h | 16712m | 4.5m/s | -67.2°C | 7.2% | 99.0hPa | 0V | 00:00:00 | 00:00:00 | 00:00:00 | |
| PU1XMG-16 | 2026-09-03 12:20:17 | -22.52406 | -42.48774 | 76° | 47km/h | 16646m | 4.1m/s | -67.8°C | 7.5% | 100.0hPa | 0V | 00:00:00 | 00:00:00 | 00:00:00 | |
| PU1XMG-16 | 2026-09-03 12:20:11 | -22.52434 | -42.48853 | 63° | 57km/h | 16613m | 6.5m/s | -68.2°C | 8.1% | 100.6hPa | 0V | 00:00:00 | 00:00:00 | 00:00:00 | |
| PU1XMG-16 | 2026-09-03 12:20:06 | -22.52463 | -42.48924 | 74° | 55km/h | 16583m | 6.2m/s | -68.4°C | 8.1% | 101.1hPa | 0V | 00:00:00 | 00:00:00 | 00:00:00 | |
| PU1XMG-16 | 2026-09-03 12:19:59 | -22.52491 | -42.49033 | 58° | 68km/h | 16544m | 10.1m/s | -68.3°C | 7.7% | 101.6hPa | 0V | 00:00:00 | 00:00:00 | 00:00:00 | |
| PU1XMG-16 | 2026-09-03 12:19:53 | -22.52542 | -42.49124 | 71° | 88km/h | 16507m | 6.5m/s | -68.6°C | 8.3% | 102.3hPa | 0V | 00:00:00 | 00:00:00 | 00:00:00 | |
| PU1XMG-16 | 2026-09-03 12:19:48 | -22.52577 | -42.49231 | 67° | 82km/h | 16469m | 7.0m/s | -68.6°C | 8.4% | 103.0hPa | 0V | 00:00:00 | 00:00:00 | 00:00:00 | |
| PU1XMG-16 | 2026-09-03 12:19:42 | -22.52625 | -42.49354 | 65° | 86km/h | 16425m | 6.3m/s | -69.0°C | 8.6% | 103.8hPa | 0V | 00:00:00 | 00:00:00 | 00:00:00 | |
| PU1XMG-16 | 2026-09-03 12:19:37 | -22.52673 | -42.49466 | 67° | 89km/h | 16387m | 6.3m/s | -69.0°C | 8.5% | 104.4hPa | 0V | 00:00:00 | 00:00:00 | 00:00:00 | |
| PU1XMG-16 | 2026-09-03 12:19:32 | -22.52731 | -42.49618 | 69° | 108km/h | 16346m | 5.1m/s | -69.1°C | 8.6% | 105.1hPa | 0V | 00:00:00 | 00:00:00 | 00:00:00 | |
| PU1XMG-16 | 2026-09-03 12:19:26 | -22.52792 | -42.49780 | 69° | 106km/h | 16310m | 6.6m/s | -69.2°C | 8.4% | 105.8hPa | 0V | 00:00:00 | 00:00:00 | 00:00:00 | |
| PU1XMG-16 | 2026-09-03 12:19:19 | -22.52864 | -42.49974 | 70° | 111km/h | 16267m | 5.1m/s | -69.3°C | 8.3% | 106.5hPa | 0V | 00:00:00 | 00:00:00 | 00:00:00 | |
| PU1XMG-16 | 2026-09-03 12:19:13 | -22.52919 | -42.50122 | 69° | 120km/h | 16240m | 4.9m/s | -69.6°C | 8.6% | 107.1hPa | 0V | 00:00:00 | 00:00:00 | 00:00:00 | |
| PU1XMG-16 | 2026-09-03 12:19:09 | -22.52971 | -42.50276 | 72° | 120km/h | 16210m | 7.5m/s | -70.2°C | 8.9% | 107.6hPa | 0V | 00:00:00 | 00:00:00 | 00:00:00 | |
| PU1XMG-16 | 2026-09-03 12:19:03 | -22.53030 | -42.50464 | 73° | 122km/h | 16173m | 7.1m/s | -70.5°C | 9.0% | 108.3hPa | 0V | 00:00:00 | 00:00:00 | 00:00:00 | |
| PU1XMG-16 | 2026-09-03 12:18:57 | -22.53070 | -42.50628 | 79° | 124km/h | 16143m | 10.0m/s | -70.5°C | 8.9% | 108.8hPa | 0V | 00:00:00 | 00:00:00 | 00:00:00 | |
| PU1XMG-16 | 2026-09-03 12:18:51 | -22.53107 | -42.50824 | 79° | 120km/h | 16102m | 7.8m/s | -70.5°C | 9.1% | 109.6hPa | 0V | 00:00:00 | 00:00:00 | 00:00:00 | |
| PU1XMG-16 | 2026-09-03 12:18:45 | -22.53141 | -42.51019 | 84° | 120km/h | 16063m | 7.6m/s | -70.4°C | 9.5% | 110.2hPa | 0V | 00:00:00 | 00:00:00 | 00:00:00 | |
| PU1XMG-16 | 2026-09-03 12:18:39 | -22.53164 | -42.51276 | 85° | 119km/h | 16013m | 5.5m/s | -70.3°C | 9.3% | 111.0hPa | 0V | 00:00:00 | 00:00:00 | 00:00:00 | |
| PU1XMG-16 | 2026-09-03 12:18:33 | -22.53180 | -42.51439 | 88° | 117km/h | 15986m | 4.4m/s | -69.9°C | 9.8% | 111.7hPa | 0V | 00:00:00 | 00:00:00 | 00:00:00 | |
| PU1XMG-16 | 2026-09-03 12:18:27 | -22.53185 | -42.51620 | 87° | 106km/h | 15953m | 5.0m/s | -69.5°C | 9.4% | 112.4hPa | 0V | 00:00:00 | 00:00:00 | 00:00:00 | |
| PU1XMG-16 | 2026-09-03 12:18:20 | -22.53204 | -42.51804 | 84° | 119km/h | 15914m | 4.2m/s | -69.2°C | 9.6% | 113.1hPa | 0V | 00:00:00 | 00:00:00 | 00:00:00 | |
| PU1XMG-16 | 2026-09-03 12:18:12 | -22.53233 | -42.52046 | 85° | 106km/h | 15863m | 6.6m/s | -68.8°C | 9.7% | 114.1hPa | 0V | 00:00:00 | 00:00:00 | 00:00:00 | |
| PU1XMG-16 | 2026-09-03 12:18:08 | -22.53245 | -42.52194 | 86° | 110km/h | 15836m | 7.3m/s | -68.7°C | 10.0% | 114.6hPa | 0V | 00:00:00 | 00:00:00 | 00:00:00 | |
| PU1XMG-16 | 2026-09-03 12:18:01 | -22.53276 | -42.52402 | 82° | 108km/h | 15793m | 4.3m/s | -68.8°C | 10.4% | 115.4hPa | 0V | 00:00:00 | 00:00:00 | 00:00:00 | |
| PU1XMG-16 | 2026-09-03 12:17:55 | -22.53294 | -42.52545 | 84° | 108km/h | 15760m | 6.1m/s | -68.9°C | 10.0% | 116.0hPa | 0V | 00:00:00 | 00:00:00 | 00:00:00 | |
| PU1XMG-16 | 2026-09-03 12:17:50 | -22.53317 | -42.52695 | 78° | 111km/h | 15728m | 7.9m/s | -69.0°C | 10.8% | 116.7hPa | 0V | 00:00:00 | 00:00:00 | 00:00:00 | |
| PU1XMG-16 | 2026-09-03 12:17:44 | -22.53370 | -42.52869 | 70° | 111km/h | 15684m | 8.0m/s | -68.8°C | 10.9% | 117.5hPa | 0V | 00:00:00 | 00:00:00 | 00:00:00 | |
| PU1XMG-16 | 2026-09-03 12:17:38 | -22.53428 | -42.53038 | 73° | 110km/h | 15647m | 4.7m/s | -68.9°C | 11.2% | 118.2hPa | 0V | 00:00:00 | 00:00:00 | 00:00:00 | |
| PU1XMG-16 | 2026-09-03 12:17:27 | -22.53552 | -42.53380 | 70° | 111km/h | 15576m | 6.5m/s | -69.1°C | 11.9% | 119.6hPa | 0V | 00:00:00 | 00:00:00 | 00:00:00 | |
| PU1XMG-16 | 2026-09-03 12:17:19 | -22.53635 | -42.53614 | 69° | 117km/h | 15527m | 5.6m/s | -69.1°C | 12.1% | 120.6hPa | 0V | 00:00:00 | 00:00:00 | 00:00:00 | |
| PU1XMG-16 | 2026-09-03 12:17:13 | -22.53701 | -42.53790 | 68° | 119km/h | 15493m | 4.9m/s | -69.0°C | 11.6% | 121.3hPa | 0V | 00:00:00 | 00:00:00 | 00:00:00 | |
| PU1XMG-16 | 2026-09-03 12:17:06 | -22.53770 | -42.53968 | 69° | 117km/h | 15457m | 5.6m/s | -68.9°C | 11.6% | 122.0hPa | 0V | 00:00:00 | 00:00:00 | 00:00:00 | |
| PU1XMG-16 | 2026-09-03 12:17:02 | -22.53829 | -42.54120 | 67° | 124km/h | 15428m | 5.8m/s | -68.9°C | 12.3% | 122.7hPa | 0V | 00:00:00 | 00:00:00 | 00:00:00 | |
| PU1XMG-16 | 2026-09-03 12:16:55 | -22.53940 | -42.54357 | 64° | 122km/h | 15379m | 5.3m/s | -68.9°C | 12.0% | 123.5hPa | 0V | 00:00:00 | 00:00:00 | 00:00:00 | |
| PU1XMG-16 | 2026-09-03 12:16:49 | -22.54010 | -42.54507 | 63° | 126km/h | 15349m | 5.5m/s | -68.8°C | 11.6% | 124.2hPa | 0V | 00:00:00 | 00:00:00 | 00:00:00 | |
| PU1XMG-16 | 2026-09-03 12:16:44 | -22.54088 | -42.54660 | 62° | 128km/h | 15318m | 6.0m/s | -68.5°C | 11.8% | 124.9hPa | 0V | 00:00:00 | 00:00:00 | 00:00:00 | |
| PU1XMG-16 | 2026-09-03 12:16:38 | -22.54173 | -42.54842 | 65° | 124km/h | 15284m | 5.2m/s | -68.2°C | 11.8% | 125.6hPa | 0V | 00:00:00 | 00:00:00 | 00:00:00 | |
| PU1XMG-16 | 2026-09-03 12:16:32 | -22.54247 | -42.54995 | 63° | 128km/h | 15252m | 5.1m/s | -68.2°C | 11.9% | 126.3hPa | 0V | 00:00:00 | 00:00:00 | 00:00:00 | |
| PU1XMG-16 | 2026-09-03 12:16:27 | -22.54333 | -42.55175 | 65° | 120km/h | 15217m | 5.1m/s | -68.0°C | 11.1% | 127.0hPa | 0V | 00:00:00 | 00:00:00 | 00:00:00 | |
| PU1XMG-16 | 2026-09-03 12:16:21 | -22.54401 | -42.55327 | 65° | 126km/h | 15187m | 4.1m/s | -67.8°C | 10.9% | 127.7hPa | 0V | 00:00:00 | 00:00:00 | 00:00:00 | |
| PU1XMG-16 | 2026-09-03 12:16:13 | -22.54519 | -42.55570 | 62° | 126km/h | 15137m | 5.0m/s | -67.7°C | 11.6% | 128.8hPa | 0V | 00:00:00 | 00:00:00 | 00:00:00 | |
| PU1XMG-16 | 2026-09-03 12:16:08 | -22.54610 | -42.55748 | 62° | 120km/h | 15100m | 7.5m/s | -67.9°C | 10.5% | 129.5hPa | 0V | 00:00:00 | 00:00:00 | 00:00:00 | |
| PU1XMG-16 | 2026-09-03 12:16:02 | -22.54697 | -42.55918 | 61° | 120km/h | 15065m | 6.1m/s | -67.7°C | 10.4% | 130.3hPa | 0V | 00:00:00 | 00:00:00 | 00:00:00 | |
| PU1XMG-16 | 2026-09-03 12:15:57 | -22.54784 | -42.56071 | 60° | 137km/h | 15031m | 7.1m/s | -67.6°C | 10.4% | 131.0hPa | 0V | 00:00:00 | 00:00:00 | 00:00:00 | |
| PU1XMG-16 | 2026-09-03 12:15:51 | -22.54888 | -42.56260 | 59° | 131km/h | 14994m | 5.1m/s | -67.5°C | 10.2% | 131.8hPa | 0V | 00:00:00 | 00:00:00 | 00:00:00 | |
| PU1XMG-16 | 2026-09-03 12:15:46 | -22.54984 | -42.56413 | 57° | 137km/h | 14963m | 7.7m/s | -67.5°C | 10.0% | 132.4hPa | 0V | 00:00:00 | 00:00:00 | 00:00:00 | |
| PU1XMG-16 | 2026-09-03 12:15:39 | -22.55117 | -42.56636 | 58° | 144km/h | 14918m | 7.8m/s | -67.3°C | 9.9% | 133.4hPa | 0V | 00:00:00 | 00:00:00 | 00:00:00 | |
| PU1XMG-16 | 2026-09-03 12:15:32 | -22.55265 | -42.56875 | 58° | 153km/h | 14871m | 5.4m/s | -66.9°C | 9.5% | 134.5hPa | 0V | 00:00:00 | 00:00:00 | 00:00:00 | |
| PU1XMG-16 | 2026-09-03 12:15:27 | -22.55371 | -42.57047 | 57° | 148km/h | 14839m | 7.4m/s | -66.7°C | 9.1% | 135.2hPa | 0V | 00:00:00 | 00:00:00 | 00:00:00 | |
| PU1XMG-16 | 2026-09-03 12:15:20 | -22.55507 | -42.57246 | 55° | 157km/h | 14802m | 7.5m/s | -66.4°C | 9.3% | 136.0hPa | 0V | 00:00:00 | 00:00:00 | 00:00:00 | |
| PU1XMG-16 | 2026-09-03 12:15:14 | -22.55725 | -42.57609 | 56° | 151km/h | 14740m | 8.5m/s | -66.2°C | 9.7% | 136.9hPa | 0V | 00:00:00 | 00:00:00 | 00:00:00 | |
| PU1XMG-16 | 2026-09-03 12:15:06 | -22.55816 | -42.57744 | 55° | 155km/h | 14715m | 8.0m/s | -66.3°C | 9.8% | 138.0hPa | 0V | 00:00:00 | 00:00:00 | 00:00:00 | |
| PU1XMG-16 | 2026-09-03 12:15:01 | -22.55940 | -42.57968 | 62° | 162km/h | 14671m | 6.0m/s | -66.1°C | 10.1% | 139.0hPa | 0V | 00:00:00 | 00:00:00 | 00:00:00 | |
| PU1XMG-16 | 2026-09-03 12:14:55 | -22.56084 | -42.58238 | 61° | 162km/h | 14626m | 7.5m/s | -66.0°C | 9.8% | 139.8hPa | 0V | 00:00:00 | 00:00:00 | 00:00:00 | |
| PU1XMG-16 | 2026-09-03 12:14:50 | -22.56183 | -42.58443 | 64° | 168km/h | 14596m | 6.1m/s | -65.8°C | 10.3% | 140.6hPa | 0V | 00:00:00 | 00:00:00 | 00:00:00 | |
| PU1XMG-16 | 2026-09-03 12:14:44 | -22.56275 | -42.58643 | 66° | 161km/h | 14568m | 7.3m/s | -65.6°C | 10.5% | 141.3hPa | 0V | 00:00:00 | 00:00:00 | 00:00:00 | |
| PU1XMG-16 | 2026-09-03 12:14:39 | -22.56363 | -42.58842 | 66° | 162km/h | 14538m | 5.5m/s | -65.5°C | 10.9% | 142.0hPa | 0V | 00:00:00 | 00:00:00 | 00:00:00 | |
| PU1XMG-16 | 2026-09-03 12:14:33 | -22.56470 | -42.59091 | 66° | 164km/h | 14507m | 6.3m/s | -65.5°C | 10.3% | 142.8hPa | 0V | 00:00:00 | 00:00:00 | 00:00:00 | |
| PU1XMG-16 | 2026-09-03 12:14:27 | -22.56556 | -42.59295 | 68° | 161km/h | 14468m | 5.2m/s | -65.3°C | 11.0% | 143.8hPa | 0V | 00:00:00 | 00:00:00 | 00:00:00 | |
| PU1XMG-16 | 2026-09-03 12:14:22 | -22.56625 | -42.59505 | 72° | 161km/h | 14439m | 5.4m/s | -65.2°C | 11.1% | 144.4hPa | 0V | 00:00:00 | 00:00:00 | 00:00:00 | |
| PU1XMG-16 | 2026-09-03 12:14:17 | -22.56708 | -42.59758 | 72° | 162km/h | 14405m | 5.7m/s | -65.3°C | 11.5% | 145.2hPa | 0V | 00:00:00 | 00:00:00 | 00:00:00 | |
| PU1XMG-16 | 2026-09-03 12:14:11 | -22.56771 | -42.59973 | 74° | 168km/h | 14371m | 6.6m/s | -65.0°C | 11.2% | 146.0hPa | 0V | 00:00:00 | 00:00:00 | 00:00:00 | |
| PU1XMG-16 | 2026-09-03 12:14:06 | -22.56844 | -42.60237 | 74° | 166km/h | 14334m | 5.4m/s | -64.7°C | 11.1% | 146.9hPa | 0V | 00:00:00 | 00:00:00 | 00:00:00 | |
| PU1XMG-16 | 2026-09-03 12:14:00 | -22.56943 | -42.60584 | 76° | 168km/h | 14284m | 6.3m/s | -64.5°C | 10.8% | 147.8hPa | 0V | 00:00:00 | 00:00:00 | 00:00:00 | |
| PU1XMG-16 | 2026-09-03 12:13:53 | -22.56988 | -42.60761 | 75° | 168km/h | 14261m | 5.3m/s | -64.1°C | 10.5% | 148.7hPa | 0V | 00:00:00 | 00:00:00 | 00:00:00 | |
| PU1XMG-16 | 2026-09-03 12:13:48 | -22.57062 | -42.61022 | 74° | 168km/h | 14223m | 4.6m/s | -63.8°C | 10.4% | 149.5hPa | 0V | 00:00:00 | 00:00:00 | 00:00:00 | |
| PU1XMG-16 | 2026-09-03 12:13:42 | -22.57135 | -42.61289 | 75° | 170km/h | 14190m | 7.5m/s | -63.5°C | 10.2% | 150.4hPa | 0V | 00:00:00 | 00:00:00 | 00:00:00 | |
| PU1XMG-16 | 2026-09-03 12:13:35 | -22.57207 | -42.61551 | 75° | 168km/h | 14156m | 3.9m/s | -63.2°C | 10.5% | 151.2hPa | 0V | 00:00:00 | 00:00:00 | 00:00:00 | |
| PU1XMG-16 | 2026-09-03 12:13:30 | -22.57295 | -42.61862 | 75° | 172km/h | 14114m | 6.8m/s | -62.8°C | 9.8% | 152.1hPa | 0V | 00:00:00 | 00:00:00 | 00:00:00 | |
| PU1XMG-16 | 2026-09-03 12:13:23 | -22.57353 | -42.62084 | 75° | 168km/h | 14084m | 6.6m/s | -62.5°C | 10.0% | 153.0hPa | 0V | 00:00:00 | 00:00:00 | 00:00:00 | |
| PU1XMG-16 | 2026-09-03 12:13:19 | -22.57415 | -42.62302 | 74° | 168km/h | 14051m | 5.2m/s | -62.2°C | 10.0% | 153.8hPa | 0V | 00:00:00 | 00:00:00 | 00:00:00 | |
| PU1XMG-16 | 2026-09-03 12:13:13 | -22.57481 | -42.62568 | 76° | 166km/h | 14015m | 7.0m/s | -62.0°C | 10.1% | 154.7hPa | 0V | 00:00:00 | 00:00:00 | 00:00:00 | |
| PU1XMG-16 | 2026-09-03 12:13:07 | -22.57537 | -42.62789 | 76° | 170km/h | 13986m | 6.2m/s | -61.8°C | 9.8% | 155.4hPa | 0V | 00:00:00 | 00:00:00 | 00:00:00 | |
| PU1XMG-16 | 2026-09-03 12:13:03 | -22.57594 | -42.63012 | 76° | 168km/h | 13955m | 4.9m/s | -61.6°C | 9.8% | 156.2hPa | 0V | 00:00:00 | 00:00:00 | 00:00:00 | |
| PU1XMG-16 | 2026-09-03 12:12:57 | -22.57656 | -42.63284 | 78° | 170km/h | 13918m | 6.4m/s | -61.6°C | 10.0% | 157.1hPa | 0V | 00:00:00 | 00:00:00 | 00:00:00 | |
| PU1XMG-16 | 2026-09-03 12:12:30 | -22.57898 | -42.64465 | 80° | 175km/h | 13771m | 4.1m/s | -60.8°C | 9.7% | 160.9hPa | 0V | 00:00:00 | 00:00:00 | 00:00:00 | |
| PU1XMG-16 | 2026-09-03 12:12:25 | -22.58002 | -42.64928 | 73° | 172km/h | 13721m | 8.8m/s | -60.6°C | 10.0% | 161.6hPa | 0V | 00:00:00 | 00:00:00 | 00:00:00 | |
| PU1XMG-16 | 2026-09-03 12:12:19 | -22.58049 | -42.65109 | 76° | 173km/h | 13695m | 8.5m/s | -60.3°C | 9.9% | 162.3hPa | 0V | 00:00:00 | 00:00:00 | 00:00:00 | |
| PU1XMG-16 | 2026-09-03 12:12:12 | -22.58101 | -42.65338 | 77° | 175km/h | 13667m | 6.1m/s | -60.1°C | 9.9% | 163.6hPa | 0V | 00:00:00 | 00:00:00 | 00:00:00 | |
| PU1XMG-16 | 2026-09-03 12:11:14 | -22.58823 | -42.68069 | 77° | 179km/h | 13318m | 5.3m/s | 0°C | 0% | 0hPa | 0V | 00:00:00 | 00:00:00 | 00:00:00 | |
| PU1XMG-16 | 2026-09-03 12:11:08 | -22.58868 | -42.68258 | 76° | 177km/h | 13297m | 6.4m/s | 0°C | 0% | 0hPa | 0V | 00:00:00 | 00:00:00 | 00:00:00 | |
| PU1XMG-16 | 2026-09-03 12:11:02 | -22.58937 | -42.68536 | 77° | 179km/h | 13259m | 5.4m/s | 0°C | 0% | 0hPa | 0V | 00:00:00 | 00:00:00 | 00:00:00 | |
| PU1XMG-16 | 2026-09-03 12:10:57 | -22.58991 | -42.68776 | 77° | 181km/h | 13229m | 7.7m/s | 0°C | 0% | 0hPa | 0V | 00:00:00 | 00:00:00 | 00:00:00 | |
| PU1XMG-16 | 2026-09-03 12:10:52 | -22.59064 | -42.69060 | 77° | 179km/h | 13194m | 4.7m/s | 0°C | 0% | 0hPa | 0V | 00:00:00 | 00:00:00 | 00:00:00 | |
| PU1XMG-16 | 2026-09-03 12:10:46 | -22.59124 | -42.69344 | 79° | 179km/h | 13158m | 5.5m/s | 0°C | 0% | 0hPa | 0V | 00:00:00 | 00:00:00 | 00:00:00 | |
| PU1XMG-16 | 2026-09-03 12:10:40 | -22.59185 | -42.69631 | 77° | 177km/h | 13128m | 4.9m/s | 0°C | 0% | 0hPa | 0V | 00:00:00 | 00:00:00 | 00:00:00 | |
| PU1XMG-16 | 2026-09-03 12:10:34 | -22.59246 | -42.69922 | 78° | 183km/h | 13092m | 7.4m/s | 0°C | 0% | 0hPa | 0V | 00:00:00 | 00:00:00 | 00:00:00 | |
| PU1XMG-16 | 2026-09-03 12:10:28 | -22.59293 | -42.70159 | 79° | 175km/h | 13060m | 5.8m/s | 0°C | 0% | 0hPa | 0V | 00:00:00 | 00:00:00 | 00:00:00 | |
| PU1XMG-16 | 2026-09-03 12:10:23 | -22.59348 | -42.70447 | 79° | 179km/h | 13027m | 6.0m/s | 0°C | 0% | 0hPa | 0V | 00:00:00 | 00:00:00 | 00:00:00 | |
| PU1XMG-16 | 2026-09-03 12:10:17 | -22.59402 | -42.70731 | 79° | 175km/h | 12992m | 5.1m/s | 0°C | 0% | 0hPa | 0V | 00:00:00 | 00:00:00 | 00:00:00 | |
| PU1XMG-16 | 2026-09-03 12:10:12 | -22.59447 | -42.70963 | 79° | 173km/h | 12963m | 5.2m/s | 0°C | 0% | 0hPa | 0V | 00:00:00 | 00:00:00 | 00:00:00 | |
| PU1XMG-16 | 2026-09-03 12:10:06 | -22.59499 | -42.71245 | 80° | 175km/h | 12926m | 6.8m/s | 0°C | 0% | 0hPa | 0V | 00:00:00 | 00:00:00 | 00:00:00 | |
| PU1XMG-16 | 2026-09-03 12:09:57 | -22.59567 | -42.71611 | 78° | 170km/h | 12882m | 5.5m/s | 0°C | 0% | 0hPa | 0V | 00:00:00 | 00:00:00 | 00:00:00 | |
| PU1XMG-16 | 2026-09-03 12:09:48 | -22.59658 | -42.72074 | 79° | 173km/h | 12820m | 6.1m/s | 0°C | 0% | 0hPa | 0V | 00:00:00 | 00:00:00 | 00:00:00 | |
| PU1XMG-16 | 2026-09-03 12:09:42 | -22.59714 | -42.72353 | 79° | 173km/h | 12781m | 6.3m/s | 0°C | 0% | 0hPa | 0V | 00:00:00 | 00:00:00 | 00:00:00 | |
| PU1XMG-16 | 2026-09-03 12:08:22 | -22.60573 | -42.75937 | 72° | 173km/h | 12317m | 5.6m/s | -50.5°C | 6.3% | 202.0hPa | 0V | 00:00:00 | 00:00:00 | 00:00:00 | |
| PU1XMG-16 | 2026-09-03 12:07:52 | -22.60952 | -42.77217 | 74° | 173km/h | 12153m | 4.3m/s | -49.1°C | 5.8% | 207.1hPa | 0V | 00:00:00 | 00:00:00 | 00:00:00 | |
| PU1XMG-16 | 2026-09-03 12:07:48 | -22.61017 | -42.77438 | 72° | 170km/h | 12126m | 6.4m/s | -49.0°C | 5.7% | 207.9hPa | 0V | 00:00:00 | 00:00:00 | 00:00:00 | |
| PU1XMG-16 | 2026-09-03 12:07:43 | -22.61086 | -42.77657 | 74° | 168km/h | 12096m | 5.3m/s | -48.8°C | 5.7% | 208.9hPa | 0V | 00:00:00 | 00:00:00 | 00:00:00 | |
| PU1XMG-16 | 2026-09-03 12:07:36 | -22.61183 | -42.77964 | 70° | 173km/h | 12055m | 5.5m/s | -48.5°C | 5.6% | 210.2hPa | 0V | 00:00:00 | 00:00:00 | 00:00:00 | |
| PU1XMG-16 | 2026-09-03 12:07:29 | -22.61287 | -42.78269 | 70° | 170km/h | 12014m | 5.9m/s | -48.2°C | 5.6% | 211.3hPa | 0V | 00:00:00 | 00:00:00 | 00:00:00 | |
| PU1XMG-16 | 2026-09-03 12:07:24 | -22.61368 | -42.78485 | 69° | 173km/h | 11988m | 5.5m/s | -48.1°C | 5.7% | 212.4hPa | 0V | 00:00:00 | 00:00:00 | 00:00:00 | |
| PU1XMG-16 | 2026-09-03 12:07:11 | -22.61573 | -42.79045 | 66° | 175km/h | 11920m | 5.3m/s | -47.6°C | 5.6% | 214.6hPa | 0V | 00:00:00 | 00:00:00 | 00:00:00 | |
| PU1XMG-16 | 2026-09-03 12:04:48 | -22.64406 | -42.85094 | 63° | 172km/h | 11108m | 4.7m/s | -41.6°C | 5.3% | 242.1hPa | 0V | 00:00:00 | 00:00:00 | 00:00:00 | |
| PU1XMG-16 | 2026-09-03 12:04:21 | -22.64950 | -42.86201 | 64° | 181km/h | 10958m | 7.2m/s | -40.7°C | 4.6% | 247.5hPa | 0V | 00:00:00 | 00:00:00 | 00:00:00 | |
| PU1XMG-16 | 2026-09-03 12:04:12 | -22.65153 | -42.86629 | 65° | 175km/h | 10903m | 4.9m/s | -40.6°C | 4.6% | 249.5hPa | 0V | 00:00:00 | 00:00:00 | 00:00:00 | |
| PU1XMG-16 | 2026-09-03 12:00:32 | -22.69136 | -42.96017 | 63° | 168km/h | 9685m | 6.2m/s | -32.2°C | 4.2% | 297.1hPa | 0V | 00:00:00 | 00:00:00 | 00:00:00 | |
| PU1XMG-16 | 2026-09-03 12:00:26 | -22.69235 | -42.96217 | 63° | 164km/h | 9658m | 5.8m/s | -31.9°C | 4.1% | 298.2hPa | 0V | 00:00:00 | 00:00:00 | 00:00:00 | |
| PU1XMG-16 | 2026-09-03 12:00:21 | -22.69353 | -42.96464 | 65° | 172km/h | 9625m | 4.2m/s | -31.6°C | 4.0% | 299.6hPa | 0V | 00:00:00 | 00:00:00 | 00:00:00 | |
| PU1XMG-16 | 2026-09-03 12:00:15 | -22.69468 | -42.96711 | 64° | 164km/h | 9592m | 5.8m/s | -31.3°C | 4.0% | 301.0hPa | 0V | 00:00:00 | 00:00:00 | 00:00:00 | |
| PU1XMG-16 | 2026-09-03 12:00:09 | -22.69589 | -42.96946 | 62° | 164km/h | 9559m | 6.8m/s | -31.0°C | 3.9% | 302.3hPa | 0V | 00:00:00 | 00:00:00 | 00:00:00 | |
| PU1XMG-16 | 2026-09-03 12:00:04 | -22.69686 | -42.97149 | 64° | 166km/h | 9527m | 7.1m/s | -30.7°C | 3.8% | 303.8hPa | 0V | 00:00:00 | 00:00:00 | 00:00:00 | |
| PU1XMG-16 | 2026-09-03 11:59:58 | -22.69803 | -42.97396 | 67° | 166km/h | 9493m | 7.3m/s | -30.3°C | 3.8% | 305.3hPa | 0V | 00:00:00 | 00:00:00 | 00:00:00 | |
| PU1XMG-16 | 2026-09-03 11:59:52 | -22.69908 | -42.97642 | 64° | 168km/h | 9450m | 6.9m/s | -30.0°C | 3.7% | 307.0hPa | 0V | 00:00:00 | 00:00:00 | 00:00:00 | |
| PU1XMG-16 | 2026-09-03 11:59:45 | -22.70027 | -42.97889 | 63° | 173km/h | 9408m | 6.3m/s | -29.7°C | 3.6% | 308.8hPa | 0V | 00:00:00 | 00:00:00 | 00:00:00 | |
| PU1XMG-16 | 2026-09-03 11:59:40 | -22.70166 | -42.98173 | 63° | 164km/h | 9371m | 5.3m/s | -29.4°C | 3.6% | 310.3hPa | 0V | 00:00:00 | 00:00:00 | 00:00:00 | |
| PU1XMG-16 | 2026-09-03 11:59:35 | -22.70264 | -42.98376 | 63° | 166km/h | 9344m | 7.5m/s | -29.3°C | 3.7% | 311.5hPa | 0V | 00:00:00 | 00:00:00 | 00:00:00 | |
| PU1XMG-16 | 2026-09-03 11:59:29 | -22.70360 | -42.98579 | 65° | 166km/h | 9311m | 6.3m/s | -29.1°C | 3.7% | 313.1hPa | 0V | 00:00:00 | 00:00:00 | 00:00:00 | |
| PU1XMG-16 | 2026-09-03 11:59:24 | -22.70453 | -42.98785 | 64° | 162km/h | 9283m | 6.0m/s | -28.9°C | 3.8% | 314.4hPa | 0V | 00:00:00 | 00:00:00 | 00:00:00 | |
| PU1XMG-16 | 2026-09-03 11:59:18 | -22.70564 | -42.99021 | 66° | 162km/h | 9242m | 5.6m/s | -28.7°C | 4.1% | 316.1hPa | 0V | 00:00:00 | 00:00:00 | 00:00:00 | |
| PU1XMG-16 | 2026-09-03 11:59:12 | -22.70683 | -42.99267 | 62° | 172km/h | 9207m | 8.6m/s | -28.6°C | 4.7% | 317.7hPa | 0V | 00:00:00 | 00:00:00 | 00:00:00 | |
| PU1XMG-16 | 2026-09-03 11:59:06 | -22.70810 | -42.99507 | 62° | 164km/h | 9170m | 5.0m/s | -28.6°C | 5.5% | 319.3hPa | 0V | 00:00:00 | 00:00:00 | 00:00:00 | |
| PU1XMG-16 | 2026-09-03 11:59:00 | -22.70957 | -42.99788 | 61° | 170km/h | 9125m | 4.6m/s | -28.5°C | 5.4% | 321.0hPa | 0V | 00:00:00 | 00:00:00 | 00:00:00 | |
| PU1XMG-16 | 2026-09-03 11:58:54 | -22.71062 | -42.99985 | 62° | 164km/h | 9099m | 8.0m/s | -28.2°C | 5.1% | 322.5hPa | 0V | 00:00:00 | 00:00:00 | 00:00:00 | |
| PU1XMG-16 | 2026-09-03 11:58:45 | -22.71443 | -43.00778 | 65° | 164km/h | 8978m | 7.1m/s | -27.7°C | 4.9% | 325.0hPa | 0V | 00:00:00 | 00:00:00 | 00:00:00 | |
| PU1XMG-16 | 2026-09-03 11:58:31 | -22.71498 | -43.00901 | 65° | 168km/h | 8960m | 3.4m/s | -27.0°C | 5.2% | 328.6hPa | 0V | 00:00:00 | 00:00:00 | 00:00:00 | |
| PU1XMG-16 | 2026-09-03 11:58:26 | -22.71594 | -43.01106 | 62° | 170km/h | 8930m | 6.7m/s | -26.8°C | 5.1% | 330.0hPa | 0V | 00:00:00 | 00:00:00 | 00:00:00 | |
| PU1XMG-16 | 2026-09-03 11:58:19 | -22.71772 | -43.01460 | 63° | 162km/h | 8872m | 5.7m/s | -26.4°C | 5.0% | 331.9hPa | 0V | 00:00:00 | 00:00:00 | 00:00:00 | |
| PU1XMG-16 | 2026-09-03 11:58:12 | -22.71866 | -43.01660 | 65° | 161km/h | 8844m | 3.7m/s | -25.9°C | 5.0% | 334.1hPa | 0V | 00:00:00 | 00:00:00 | 00:00:00 | |
| PU1XMG-16 | 2026-09-03 11:58:06 | -22.71976 | -43.01904 | 65° | 175km/h | 8812m | 4.5m/s | -25.7°C | 4.9% | 335.4hPa | 0V | 00:00:00 | 00:00:00 | 00:00:00 | |
| PU1XMG-16 | 2026-09-03 11:58:00 | -22.72099 | -43.02153 | 64° | 168km/h | 8777m | 8.4m/s | -25.4°C | 4.3% | 337.0hPa | 0V | 00:00:00 | 00:00:00 | 00:00:00 | |
| PU1XMG-16 | 2026-09-03 11:57:53 | -22.72214 | -43.02390 | 64° | 164km/h | 8738m | 4.5m/s | -25.0°C | 4.0% | 338.9hPa | 0V | 00:00:00 | 00:00:00 | 00:00:00 | |
| PU1XMG-16 | 2026-09-03 11:57:43 | -22.72436 | -43.02838 | 65° | 164km/h | 8676m | 4.8m/s | -24.5°C | 2.7% | 341.8hPa | 0V | 00:00:00 | 00:00:00 | 00:00:00 | |
| PU1XMG-16 | 2026-09-03 11:57:37 | -22.72554 | -43.03081 | 62° | 164km/h | 8638m | 7.4m/s | -24.2°C | 2.6% | 343.6hPa | 0V | 00:00:00 | 00:00:00 | 00:00:00 | |
| PU1XMG-16 | 2026-09-03 11:57:32 | -22.72655 | -43.03283 | 64° | 173km/h | 8610m | 5.4m/s | -23.9°C | 2.5% | 345.0hPa | 0V | 00:00:00 | 00:00:00 | 00:00:00 | |
| PU1XMG-16 | 2026-09-03 11:57:26 | -22.72757 | -43.03493 | 61° | 168km/h | 8587m | 5.1m/s | -23.7°C | 2.6% | 346.1hPa | 0V | 00:00:00 | 00:00:00 | 00:00:00 | |
| PU1XMG-16 | 2026-09-03 11:57:21 | -22.72873 | -43.03736 | 66° | 164km/h | 8545m | 7.3m/s | -23.5°C | 2.8% | 348.0hPa | 0V | 00:00:00 | 00:00:00 | 00:00:00 | |
| PU1XMG-16 | 2026-09-03 11:57:15 | -22.73005 | -43.04017 | 61° | 173km/h | 8504m | 5.9m/s | -23.3°C | 3.1% | 349.7hPa | 0V | 00:00:00 | 00:00:00 | 00:00:00 | |
| PU1XMG-16 | 2026-09-03 11:57:09 | -22.73115 | -43.04225 | 62° | 164km/h | 8481m | 6.3m/s | -23.0°C | 3.3% | 351.0hPa | 0V | 00:00:00 | 00:00:00 | 00:00:00 | |
| PU1XMG-16 | 2026-09-03 11:57:03 | -22.73212 | -43.04418 | 66° | 161km/h | 8435m | 9.1m/s | -22.7°C | 3.3% | 353.1hPa | 0V | 00:00:00 | 00:00:00 | 00:00:00 | |
| PU1XMG-16 | 2026-09-03 11:56:57 | -22.73310 | -43.04656 | 63° | 153km/h | 8402m | 4.4m/s | -22.3°C | 3.4% | 354.8hPa | 0V | 00:00:00 | 00:00:00 | 00:00:00 | |
| PU1XMG-16 | 2026-09-03 11:56:52 | -22.73410 | -43.04847 | 60° | 162km/h | 8355m | 8.1m/s | -22.0°C | 3.2% | 357.1hPa | 0V | 00:00:00 | 00:00:00 | 00:00:00 | |
| PU1XMG-16 | 2026-09-03 11:56:48 | -22.73507 | -43.05040 | 66° | 161km/h | 8323m | 5.6m/s | -21.7°C | 3.4% | 358.7hPa | 0V | 00:00:00 | 00:00:00 | 00:00:00 | |
| PU1XMG-16 | 2026-09-03 11:56:42 | -22.73618 | -43.05276 | 63° | 157km/h | 8284m | 4.5m/s | -21.4°C | 3.3% | 360.6hPa | 0V | 00:00:00 | 00:00:00 | 00:00:00 | |
| PU1XMG-16 | 2026-09-03 11:56:36 | -22.73712 | -43.05467 | 63° | 161km/h | 8257m | 5.7m/s | -21.2°C | 3.3% | 361.8hPa | 0V | 00:00:00 | 00:00:00 | 00:00:00 | |
| PU1XMG-16 | 2026-09-03 11:56:31 | -22.73826 | -43.05704 | 64° | 161km/h | 8227m | 5.7m/s | -20.9°C | 3.1% | 363.3hPa | 0V | 00:00:00 | 00:00:00 | 00:00:00 | |
| PU1XMG-16 | 2026-09-03 11:56:26 | -22.73916 | -43.05897 | 63° | 161km/h | 8204m | 4.9m/s | -20.7°C | 3.1% | 364.5hPa | 0V | 00:00:00 | 00:00:00 | 00:00:00 | |
| PU1XMG-16 | 2026-09-03 11:56:20 | -22.74034 | -43.06130 | 64° | 159km/h | 8172m | 6.8m/s | -20.4°C | 3.0% | 365.9hPa | 0V | 00:00:00 | 00:00:00 | 00:00:00 | |
| PU1XMG-16 | 2026-09-03 11:56:14 | -22.74143 | -43.06366 | 64° | 161km/h | 8143m | 5.9m/s | -20.1°C | 2.9% | 367.6hPa | 0V | 00:00:00 | 00:00:00 | 00:00:00 | |
| PU1XMG-16 | 2026-09-03 11:56:08 | -22.74259 | -43.06596 | 62° | 153km/h | 8108m | 7.0m/s | -19.8°C | 2.9% | 369.3hPa | 0V | 00:00:00 | 00:00:00 | 00:00:00 | |
| PU1XMG-16 | 2026-09-03 11:56:03 | -22.74352 | -43.06786 | 63° | 166km/h | 8079m | 4.9m/s | -19.5°C | 2.9% | 370.7hPa | 0V | 00:00:00 | 00:00:00 | 00:00:00 | |
| PU1XMG-16 | 2026-09-03 11:55:57 | -22.74477 | -43.07019 | 61° | 155km/h | 8048m | 6.4m/s | -19.2°C | 2.7% | 372.4hPa | 0V | 00:00:00 | 00:00:00 | 00:00:00 | |
| PU1XMG-16 | 2026-09-03 11:55:51 | -22.74588 | -43.07239 | 62° | 159km/h | 8011m | 6.1m/s | -19.0°C | 2.3% | 374.2hPa | 0V | 00:00:00 | 00:00:00 | 00:00:00 | |
| PU1XMG-16 | 2026-09-03 11:55:44 | -22.74766 | -43.07573 | 63° | 153km/h | 7958m | 6.9m/s | -18.7°C | 2.4% | 375.9hPa | 0V | 00:00:00 | 00:00:00 | 00:00:00 | |
| PU1XMG-16 | 2026-09-03 11:55:40 | -22.75019 | -43.08049 | 61° | 159km/h | 7874m | 7.2m/s | -18.5°C | 2.4% | 377.3hPa | 0V | 00:00:00 | 00:00:00 | 00:00:00 | |
| PU1XMG-16 | 2026-09-03 11:55:26 | -22.75060 | -43.08123 | 60° | 157km/h | 7864m | 6.9m/s | -18.0°C | 2.6% | 381.5hPa | 0V | 00:00:00 | 00:00:00 | 00:00:00 | |
| PU1XMG-16 | 2026-09-03 11:55:20 | -22.75183 | -43.08351 | 61° | 166km/h | 7828m | 4.9m/s | -18.5°C | 2.8% | 383.4hPa | 0V | 00:00:00 | 00:00:00 | 00:00:00 | |
| PU1XMG-16 | 2026-09-03 11:55:15 | -22.75327 | -43.08615 | 58° | 157km/h | 7785m | 4.4m/s | -18.7°C | 3.2% | 385.3hPa | 0V | 00:00:00 | 00:00:00 | 00:00:00 | |
| PU1XMG-16 | 2026-09-03 11:55:09 | -22.75438 | -43.08788 | 56° | 150km/h | 7759m | 5.6m/s | -18.9°C | 3.6% | 386.9hPa | 0V | 00:00:00 | 00:00:00 | 00:00:00 | |
| PU1XMG-16 | 2026-09-03 11:54:25 | -22.76357 | -43.10107 | 56° | 133km/h | 7526m | 4.0m/s | -19.4°C | 5.3% | 399.2hPa | 0V | 00:00:00 | 00:00:00 | 00:00:00 | |
| PU1XMG-16 | 2026-09-03 11:54:21 | -22.76454 | -43.10243 | 52° | 120km/h | 7492m | 8.5m/s | -19.5°C | 5.6% | 400.9hPa | 0V | 00:00:00 | 00:00:00 | 00:00:00 | |
| PU1XMG-16 | 2026-09-03 11:54:15 | -22.76864 | -43.10938 | 59° | 89km/h | 7315m | 7.4m/s | -19.8°C | 7.3% | 403.1hPa | 0V | 00:00:00 | 00:00:00 | 00:00:00 | |
| PU1XMG-16 | 2026-09-03 11:53:53 | -22.76864 | -43.10938 | 59° | 89km/h | 7315m | 7.4m/s | -20.7°C | 19.5% | 410.9hPa | 0V | 00:00:00 | 00:00:00 | 00:00:00 | |
| PU1XMG-16 | 2026-09-03 11:53:49 | -22.76936 | -43.11040 | 54° | 102km/h | 7287m | 6.0m/s | -20.5°C | 18.9% | 412.4hPa | 0V | 00:00:00 | 00:00:00 | 00:00:00 | |
| PU1XMG-16 | 2026-09-03 11:53:42 | -22.77027 | -43.11190 | 57° | 113km/h | 7246m | 4.8m/s | -20.2°C | 18.3% | 414.7hPa | 0V | 00:00:00 | 00:00:00 | 00:00:00 | |
| PU1XMG-16 | 2026-09-03 11:53:38 | -22.77105 | -43.11311 | 60° | 106km/h | 7211m | 9.4m/s | -20.1°C | 17.8% | 416.5hPa | 0V | 00:00:00 | 00:00:00 | 00:00:00 | |
| PU1XMG-16 | 2026-09-03 11:53:32 | -22.77173 | -43.11440 | 56° | 95km/h | 7168m | 4.8m/s | -19.7°C | 17.3% | 418.9hPa | 0V | 00:00:00 | 00:00:00 | 00:00:00 | |
| PU1XMG-16 | 2026-09-03 11:53:26 | -22.77237 | -43.11565 | 70° | 110km/h | 7136m | 6.3m/s | -19.5°C | 16.5% | 420.7hPa | 0V | 00:00:00 | 00:00:00 | 00:00:00 | |
| PU1XMG-16 | 2026-09-03 11:53:21 | -22.77299 | -43.11725 | 64° | 89km/h | 7103m | 6.7m/s | -19.2°C | 15.9% | 422.5hPa | 0V | 00:00:00 | 00:00:00 | 00:00:00 | |
| PU1XMG-16 | 2026-09-03 11:53:15 | -22.77367 | -43.11896 | 66° | 113km/h | 7063m | 7.0m/s | -18.9°C | 15.3% | 424.5hPa | 0V | 00:00:00 | 00:00:00 | 00:00:00 | |
| PU1XMG-16 | 2026-09-03 11:53:09 | -22.77419 | -43.11992 | 58° | 88km/h | 7039m | 6.7m/s | -18.6°C | 14.8% | 426.0hPa | 0V | 00:00:00 | 00:00:00 | 00:00:00 | |
| PU1XMG-16 | 2026-09-03 11:53:05 | -22.77471 | -43.12132 | 69° | 102km/h | 7000m | 3.5m/s | -18.4°C | 13.2% | 428.0hPa | 0V | 00:00:00 | 00:00:00 | 00:00:00 | |
| PU1XMG-16 | 2026-09-03 11:52:58 | -22.77530 | -43.12250 | 63° | 95km/h | 6971m | 5.3m/s | -18.1°C | 12.7% | 430.0hPa | 0V | 00:00:00 | 00:00:00 | 00:00:00 | |
| PU1XMG-16 | 2026-09-03 11:52:52 | -22.77586 | -43.12393 | 75° | 88km/h | 6934m | 4.8m/s | -17.9°C | 11.9% | 432.2hPa | 0V | 00:00:00 | 00:00:00 | 00:00:00 | |
| PU1XMG-16 | 2026-09-03 11:52:46 | -22.77623 | -43.12518 | 65° | 82km/h | 6909m | 5.1m/s | -17.8°C | 10.3% | 433.9hPa | 0V | 00:00:00 | 00:00:00 | 00:00:00 | |
| PU1XMG-16 | 2026-09-03 11:52:41 | -22.77679 | -43.12667 | 74° | 102km/h | 6874m | 6.1m/s | -17.7°C | 10.7% | 435.9hPa | 0V | 00:00:00 | 00:00:00 | 00:00:00 | |
| PU1XMG-16 | 2026-09-03 11:52:34 | -22.77733 | -43.12840 | 80° | 100km/h | 6830m | 6.0m/s | -17.7°C | 11.0% | 438.2hPa | 0V | 00:00:00 | 00:00:00 | 00:00:00 | |
| PU1XMG-16 | 2026-09-03 11:52:30 | -22.77757 | -43.12974 | 77° | 95km/h | 6796m | 6.3m/s | -17.5°C | 11.2% | 440.0hPa | 0V | 00:00:00 | 00:00:00 | 00:00:00 | |
| PU1XMG-16 | 2026-09-03 11:52:25 | -22.77777 | -43.13090 | 79° | 88km/h | 6763m | 4.5m/s | -17.2°C | 11.0% | 441.9hPa | 0V | 00:00:00 | 00:00:00 | 00:00:00 | |
| PU1XMG-16 | 2026-09-03 11:52:18 | -22.77806 | -43.13221 | 81° | 100km/h | 6731m | 7.8m/s | -16.9°C | 11.2% | 444.2hPa | 0V | 00:00:00 | 00:00:00 | 00:00:00 | |
| PU1XMG-16 | 2026-09-03 11:52:13 | -22.77821 | -43.13357 | 85° | 93km/h | 6702m | 3.0m/s | -16.7°C | 11.5% | 445.8hPa | 0V | 00:00:00 | 00:00:00 | 00:00:00 | |
| PU1XMG-16 | 2026-09-03 11:52:08 | -22.77845 | -43.13513 | 82° | 104km/h | 6669m | 4.7m/s | -16.5°C | 11.6% | 447.8hPa | 0V | 00:00:00 | 00:00:00 | 00:00:00 | |
| PU1XMG-16 | 2026-09-03 11:52:02 | -22.77876 | -43.13663 | 82° | 91km/h | 6633m | 7.6m/s | -16.3°C | 11.5% | 450.0hPa | 0V | 00:00:00 | 00:00:00 | 00:00:00 | |
| PU1XMG-16 | 2026-09-03 11:51:57 | -22.77903 | -43.13799 | 70° | 100km/h | 6600m | 6.5m/s | -16.0°C | 11.5% | 451.9hPa | 0V | 00:00:00 | 00:00:00 | 00:00:00 | |
| PU1XMG-16 | 2026-09-03 11:51:51 | -22.77940 | -43.13945 | 79° | 102km/h | 6563m | 3.4m/s | -15.7°C | 12.9% | 454.1hPa | 0V | 00:00:00 | 00:00:00 | 00:00:00 | |
| PU1XMG-16 | 2026-09-03 11:51:45 | -22.77981 | -43.14078 | 66° | 99km/h | 6525m | 7.4m/s | -15.5°C | 13.9% | 456.4hPa | 0V | 00:00:00 | 00:00:00 | 00:00:00 | |
| PU1XMG-16 | 2026-09-03 11:51:40 | -22.78018 | -43.14214 | 81° | 104km/h | 6495m | 7.9m/s | -15.3°C | 14.4% | 458.3hPa | 0V | 00:00:00 | 00:00:00 | 00:00:00 | |
| PU1XMG-16 | 2026-09-03 11:51:34 | -22.78054 | -43.14396 | 82° | 93km/h | 6449m | 5.2m/s | -15.3°C | 16.2% | 460.6hPa | 0V | 00:00:00 | 00:00:00 | 00:00:00 | |
| PU1XMG-16 | 2026-09-03 11:51:29 | -22.78083 | -43.14535 | 76° | 117km/h | 6421m | 7.9m/s | -15.5°C | 21.2% | 462.7hPa | 0V | 00:00:00 | 00:00:00 | 00:00:00 | |
| PU1XMG-16 | 2026-09-03 11:51:23 | -22.78127 | -43.14677 | 69° | 100km/h | 6392m | 9.3m/s | -15.6°C | 23.4% | 464.4hPa | 0V | 00:00:00 | 00:00:00 | 00:00:00 | |
| PU1XMG-16 | 2026-09-03 11:51:18 | -22.78189 | -43.14827 | 68° | 110km/h | 6349m | 5.7m/s | -15.4°C | 27.0% | 467.1hPa | 0V | 00:00:00 | 00:00:00 | 00:00:00 | |
| PU1XMG-16 | 2026-09-03 11:51:13 | -22.78246 | -43.14959 | 66° | 104km/h | 6319m | 7.9m/s | -15.2°C | 27.4% | 469.1hPa | 0V | 00:00:00 | 00:00:00 | 00:00:00 | |
| PU1XMG-16 | 2026-09-03 11:51:08 | -22.78296 | -43.15082 | 73° | 95km/h | 6292m | 5.2m/s | -14.9°C | 28.0% | 470.9hPa | 0V | 00:00:00 | 00:00:00 | 00:00:00 | |
| PU1XMG-16 | 2026-09-03 11:51:02 | -22.78338 | -43.15211 | 67° | 106km/h | 6266m | 6.7m/s | -14.6°C | 27.9% | 472.5hPa | 0V | 00:00:00 | 00:00:00 | 00:00:00 | |
| PU1XMG-16 | 2026-09-03 11:50:57 | -22.78388 | -43.15378 | 74° | 104km/h | 6227m | 6.2m/s | -14.3°C | 27.5% | 474.9hPa | 0V | 00:00:00 | 00:00:00 | 00:00:00 | |
| PU1XMG-16 | 2026-09-03 11:50:51 | -22.78443 | -43.15502 | 62° | 99km/h | 6192m | 5.5m/s | -13.9°C | 27.0% | 477.1hPa | 0V | 00:00:00 | 00:00:00 | 00:00:00 | |
| PU1XMG-16 | 2026-09-03 11:50:47 | -22.78501 | -43.15640 | 68° | 119km/h | 6159m | 7.2m/s | -13.6°C | 26.7% | 479.0hPa | 0V | 00:00:00 | 00:00:00 | 00:00:00 | |
| PU1XMG-16 | 2026-09-03 11:50:40 | -22.78566 | -43.15795 | 64° | 88km/h | 6124m | 6.3m/s | -13.3°C | 26.4% | 481.2hPa | 0V | 00:00:00 | 00:00:00 | 00:00:00 | |
| PU1XMG-16 | 2026-09-03 11:50:34 | -22.78611 | -43.15976 | 75° | 110km/h | 6082m | 6.9m/s | -13.0°C | 26.0% | 483.4hPa | 0V | 00:00:00 | 00:00:00 | 00:00:00 | |
| PU1XMG-16 | 2026-09-03 11:50:29 | -22.78664 | -43.16114 | 65° | 104km/h | 6048m | 5.0m/s | -12.6°C | 25.7% | 485.7hPa | 0V | 00:00:00 | 00:00:00 | 00:00:00 | |
| PU1XMG-16 | 2026-09-03 11:50:25 | -22.78718 | -43.16230 | 65° | 97km/h | 6021m | 8.3m/s | -12.4°C | 25.5% | 487.2hPa | 0V | 00:00:00 | 00:00:00 | 00:00:00 | |
| PU1XMG-16 | 2026-09-03 11:50:18 | -22.78762 | -43.16351 | 71° | 89km/h | 5984m | 8.5m/s | -12.1°C | 28.2% | 490.1hPa | 0V | 00:00:00 | 00:00:00 | 00:00:00 | |
| PU1XMG-16 | 2026-09-03 11:50:14 | -22.78801 | -43.16471 | 70° | 93km/h | 5954m | 6.8m/s | -12.0°C | 30.4% | 492.0hPa | 0V | 00:00:00 | 00:00:00 | 00:00:00 | |
| PU1XMG-16 | 2026-09-03 11:50:09 | -22.78843 | -43.16595 | 75° | 106km/h | 5925m | 5.3m/s | -11.8°C | 31.8% | 494.0hPa | 0V | 00:00:00 | 00:00:00 | 00:00:00 | |
| PU1XMG-16 | 2026-09-03 11:50:02 | -22.78892 | -43.16770 | 71° | 99km/h | 5884m | 5.8m/s | -11.4°C | 31.5% | 496.5hPa | 0V | 00:00:00 | 00:00:00 | 00:00:00 | |
| PU1XMG-16 | 2026-09-03 11:49:57 | -22.78932 | -43.16923 | 75° | 108km/h | 5850m | 7.3m/s | -11.2°C | 30.9% | 498.6hPa | 0V | 00:00:00 | 00:00:00 | 00:00:00 | |
| PU1XMG-16 | 2026-09-03 11:49:51 | -22.78980 | -43.17060 | 66° | 106km/h | 5817m | 7.8m/s | -10.9°C | 30.3% | 500.7hPa | 0V | 00:00:00 | 00:00:00 | 00:00:00 | |
| PU1XMG-16 | 2026-09-03 11:49:46 | -22.79047 | -43.17214 | 71° | 93km/h | 5784m | 5.3m/s | -10.6°C | 30.0% | 503.1hPa | 0V | 00:00:00 | 00:00:00 | 00:00:00 | |
| PU1XMG-16 | 2026-09-03 11:49:39 | -22.79091 | -43.17352 | 70° | 97km/h | 5751m | 6.2m/s | -10.3°C | 29.4% | 505.3hPa | 0V | 00:00:00 | 00:00:00 | 00:00:00 | |
| PU1XMG-16 | 2026-09-03 11:49:34 | -22.79145 | -43.17516 | 74° | 106km/h | 5714m | 4.4m/s | -10.0°C | 28.7% | 507.7hPa | 0V | 00:00:00 | 00:00:00 | 00:00:00 | |
| PU1XMG-16 | 2026-09-03 11:49:29 | -22.79186 | -43.17654 | 70° | 111km/h | 5688m | 7.1m/s | -9.8°C | 27.2% | 509.4hPa | 0V | 00:00:00 | 00:00:00 | 00:00:00 | |
| PU1XMG-16 | 2026-09-03 11:49:24 | -22.79237 | -43.17780 | 66° | 88km/h | 5654m | 7.4m/s | -9.6°C | 26.3% | 511.6hPa | 0V | 00:00:00 | 00:00:00 | 00:00:00 | |
| PU1XMG-16 | 2026-09-03 11:49:19 | -22.79295 | -43.17897 | 62° | 102km/h | 5626m | 4.7m/s | -9.4°C | 26.5% | 513.5hPa | 0V | 00:00:00 | 00:00:00 | 00:00:00 | |
| PU1XMG-16 | 2026-09-03 11:49:12 | -22.79355 | -43.18043 | 63° | 93km/h | 5596m | 5.0m/s | -9.2°C | 26.5% | 515.6hPa | 0V | 00:00:00 | 00:00:00 | 00:00:00 | |
| PU1XMG-16 | 2026-09-03 11:49:08 | -22.79412 | -43.18144 | 65° | 88km/h | 5564m | 4.0m/s | -9.0°C | 26.0% | 517.7hPa | 0V | 00:00:00 | 00:00:00 | 00:00:00 | |
| PU1XMG-16 | 2026-09-03 11:49:02 | -22.79475 | -43.18297 | 66° | 108km/h | 5529m | 6.1m/s | -8.7°C | 25.2% | 520.0hPa | 0V | 00:00:00 | 00:00:00 | 00:00:00 | |
| PU1XMG-16 | 2026-09-03 11:48:57 | -22.79534 | -43.18407 | 53° | 86km/h | 5499m | 7.4m/s | -8.5°C | 24.2% | 522.1hPa | 0V | 00:00:00 | 00:00:00 | 00:00:00 | |
| PU1XMG-16 | 2026-09-03 11:48:52 | -22.79603 | -43.18510 | 59° | 99km/h | 5471m | 4.9m/s | -8.2°C | 23.5% | 523.7hPa | 0V | 00:00:00 | 00:00:00 | 00:00:00 | |
| PU1XMG-16 | 2026-09-03 11:48:45 | -22.79671 | -43.18639 | 62° | 88km/h | 5441m | 4.8m/s | -8.0°C | 22.7% | 525.9hPa | 0V | 00:00:00 | 00:00:00 | 00:00:00 | |
| PU1XMG-16 | 2026-09-03 11:48:39 | -22.79748 | -43.18777 | 51° | 86km/h | 5400m | 7.1m/s | -7.7°C | 23.1% | 528.2hPa | 0V | 00:00:00 | 00:00:00 | 00:00:00 | |
| PU1XMG-16 | 2026-09-03 11:48:33 | -22.79819 | -43.18879 | 57° | 93km/h | 5369m | 8.6m/s | -7.4°C | 23.1% | 530.9hPa | 0V | 00:00:00 | 00:00:00 | 00:00:00 | |
| PU1XMG-16 | 2026-09-03 11:48:28 | -22.79905 | -43.19003 | 53° | 86km/h | 5335m | 5.3m/s | -7.2°C | 24.6% | 533.2hPa | 0V | 00:00:00 | 00:00:00 | 00:00:00 | |
| PU1XMG-16 | 2026-09-03 11:48:23 | -22.79973 | -43.19090 | 52° | 89km/h | 5302m | 4.7m/s | -7.0°C | 24.2% | 535.4hPa | 0V | 00:00:00 | 00:00:00 | 00:00:00 | |
| PU1XMG-16 | 2026-09-03 11:48:16 | -22.80049 | -43.19218 | 60° | 88km/h | 5265m | 6.8m/s | -6.7°C | 23.3% | 537.7hPa | 0V | 00:00:00 | 00:00:00 | 00:00:00 | |
| PU1XMG-16 | 2026-09-03 11:48:12 | -22.80095 | -43.19321 | 65° | 91km/h | 5239m | 5.0m/s | -6.4°C | 22.9% | 539.5hPa | 0V | 00:00:00 | 00:00:00 | 00:00:00 | |
| PU1XMG-16 | 2026-09-03 11:48:05 | -22.80174 | -43.19447 | 56° | 77km/h | 5209m | 3.6m/s | -6.2°C | 22.4% | 541.5hPa | 0V | 00:00:00 | 00:00:00 | 00:00:00 | |
| PU1XMG-16 | 2026-09-03 11:48:00 | -22.80218 | -43.19537 | 67° | 84km/h | 5172m | 6.3m/s | -5.8°C | 21.0% | 544.1hPa | 0V | 00:00:00 | 00:00:00 | 00:00:00 | |
| PU1XMG-16 | 2026-09-03 11:47:54 | -22.80290 | -43.19673 | 62° | 80km/h | 5122m | 5.4m/s | -5.4°C | 18.8% | 547.2hPa | 0V | 00:00:00 | 00:00:00 | 00:00:00 | |
| PU1XMG-16 | 2026-09-03 11:47:48 | -22.80342 | -43.19765 | 49° | 71km/h | 5091m | 5.3m/s | -5.1°C | 18.3% | 549.9hPa | 0V | 00:00:00 | 00:00:00 | 00:00:00 | |
| PU1XMG-16 | 2026-09-03 11:47:44 | -22.80390 | -43.19844 | 69° | 73km/h | 5058m | 8.9m/s | -4.8°C | 18.2% | 552.2hPa | 0V | 00:00:00 | 00:00:00 | 00:00:00 | |
| PU1XMG-16 | 2026-09-03 11:47:39 | -22.80428 | -43.19951 | 65° | 93km/h | 5033m | 6.3m/s | -4.5°C | 18.3% | 554.0hPa | 0V | 00:00:00 | 00:00:00 | 00:00:00 | |
| PU1XMG-16 | 2026-09-03 11:47:33 | -22.80500 | -43.20083 | 58° | 88km/h | 4999m | 9.6m/s | -4.2°C | 18.3% | 556.5hPa | 0V | 00:00:00 | 00:00:00 | 00:00:00 | |
| PU1XMG-16 | 2026-09-03 11:47:28 | -22.80558 | -43.20160 | 54° | 64km/h | 4963m | 3.6m/s | -3.9°C | 15.0% | 559.0hPa | 0V | 00:00:00 | 00:00:00 | 00:00:00 | |
| PU1XMG-16 | 2026-09-03 11:47:21 | -22.80616 | -43.20271 | 65° | 89km/h | 4926m | 8.3m/s | -3.6°C | 14.2% | 561.4hPa | 0V | 00:00:00 | 00:00:00 | 00:00:00 | |
| PU1XMG-16 | 2026-09-03 11:47:09 | -22.80738 | -43.20533 | 52° | 88km/h | 4848m | 5.9m/s | -3.2°C | 10.5% | 567.1hPa | 0V | 00:00:00 | 00:00:00 | 00:00:00 | |
| PU1XMG-16 | 2026-09-03 11:47:03 | -22.80796 | -43.20626 | 63° | 78km/h | 4823m | 7.8m/s | -3.2°C | 11.9% | 568.9hPa | 0V | 00:00:00 | 00:00:00 | 00:00:00 | |
| PU1XMG-16 | 2026-09-03 11:46:57 | -22.80856 | -43.20749 | 64° | 82km/h | 4790m | 5.2m/s | -3.0°C | 12.3% | 571.3hPa | 0V | 00:00:00 | 00:00:00 | 00:00:00 | |
| PU1XMG-16 | 2026-09-03 11:46:48 | -22.80952 | -43.20906 | 58° | 62km/h | 4731m | 6.7m/s | -2.8°C | 12.2% | 575.3hPa | 0V | 00:00:00 | 00:00:00 | 00:00:00 | |
| PU1XMG-16 | 2026-09-03 11:46:43 | -22.80985 | -43.20976 | 77° | 64km/h | 4704m | 4.1m/s | -2.7°C | 12.3% | 577.4hPa | 0V | 00:00:00 | 00:00:00 | 00:00:00 | |
| PU1XMG-16 | 2026-09-03 11:46:38 | -22.81025 | -43.21089 | 63° | 68km/h | 4669m | 4.4m/s | -2.5°C | 12.4% | 580.1hPa | 0V | 00:00:00 | 00:00:00 | 00:00:00 | |
| PU1XMG-16 | 2026-09-03 11:46:32 | -22.81066 | -43.21163 | 65° | 68km/h | 4638m | 4.6m/s | -2.4°C | 12.8% | 582.3hPa | 0V | 00:00:00 | 00:00:00 | 00:00:00 | |
| PU1XMG-16 | 2026-09-03 11:46:21 | -22.81134 | -43.21346 | 80° | 44km/h | 4556m | 6.5m/s | -1.8°C | 12.8% | 588.2hPa | 0V | 00:00:00 | 00:00:00 | 00:00:00 | |
| PU1XMG-16 | 2026-09-03 11:46:16 | -22.81167 | -43.21405 | 54° | 62km/h | 4520m | 6.9m/s | -1.5°C | 12.6% | 590.5hPa | 0V | 00:00:00 | 00:00:00 | 00:00:00 | |
| PU1XMG-16 | 2026-09-03 11:46:09 | -22.81209 | -43.21506 | 79° | 42km/h | 4474m | 5.4m/s | -1.7°C | 14.8% | 593.6hPa | 0V | 00:00:00 | 00:00:00 | 00:00:00 | |
| PU1XMG-16 | 2026-09-03 11:46:05 | -22.81221 | -43.21558 | 77° | 58km/h | 4441m | 6.2m/s | -1.5°C | 15.8% | 596.6hPa | 0V | 00:00:00 | 00:00:00 | 00:00:00 | |
| PU1XMG-16 | 2026-09-03 11:45:58 | -22.81224 | -43.21641 | 92° | 47km/h | 4400m | 5.3m/s | -1.3°C | 17.0% | 599.9hPa | 0V | 00:00:00 | 00:00:00 | 00:00:00 | |
| PU1XMG-16 | 2026-09-03 11:45:52 | -22.81240 | -43.21716 | 87° | 53km/h | 4359m | 5.4m/s | -1.0°C | 17.3% | 603.0hPa | 0V | 00:00:00 | 00:00:00 | 00:00:00 | |
| PU1XMG-16 | 2026-09-03 11:45:47 | -22.81247 | -43.21798 | 81° | 64km/h | 4327m | 9.3m/s | -0.9°C | 18.1% | 605.4hPa | 0V | 00:00:00 | 00:00:00 | 00:00:00 | |
| PU1XMG-16 | 2026-09-03 11:45:42 | -22.81275 | -43.21879 | 69° | 55km/h | 4282m | 6.6m/s | -0.6°C | 18.7% | 608.9hPa | 0V | 00:00:00 | 00:00:00 | 00:00:00 | |
| PU1XMG-16 | 2026-09-03 11:45:36 | -22.81287 | -43.21952 | 81° | 49km/h | 4249m | 5.2m/s | -0.3°C | 18.5% | 611.5hPa | 0V | 00:00:00 | 00:00:00 | 00:00:00 | |
| PU1XMG-16 | 2026-09-03 11:45:31 | -22.81297 | -43.22021 | 87° | 49km/h | 4217m | 4.2m/s | -0.0°C | 18.1% | 613.9hPa | 0V | 00:00:00 | 00:00:00 | 00:00:00 | |
| PU1XMG-16 | 2026-09-03 11:45:24 | -22.81321 | -43.22106 | 76° | 40km/h | 4178m | 7.5m/s | 0.3°C | 17.8% | 616.6hPa | 0V | 00:00:00 | 00:00:00 | 00:00:00 | |
| PU1XMG-16 | 2026-09-03 11:45:19 | -22.81327 | -43.22171 | 81° | 53km/h | 4144m | 6.9m/s | 0.6°C | 17.3% | 619.1hPa | 0V | 00:00:00 | 00:00:00 | 00:00:00 | |
| PU1XMG-16 | 2026-09-03 11:45:15 | -22.81344 | -43.22245 | 70° | 49km/h | 4114m | 6.2m/s | 0.9°C | 17.1% | 621.5hPa | 0V | 00:00:00 | 00:00:00 | 00:00:00 | |
| PU1XMG-16 | 2026-09-03 11:45:03 | -22.81369 | -43.22372 | 66° | 60km/h | 4053m | 6.9m/s | 1.5°C | 15.9% | 626.6hPa | 0V | 00:00:00 | 00:00:00 | 00:00:00 | |
| PU1XMG-16 | 2026-09-03 11:44:58 | -22.81405 | -43.22461 | 71° | 44km/h | 4016m | 8.2m/s | 1.9°C | 15.4% | 629.4hPa | 0V | 00:00:00 | 00:00:00 | 00:00:00 | |
| PU1XMG-16 | 2026-09-03 11:44:52 | -22.81432 | -43.22522 | 66° | 49km/h | 3984m | 6.4m/s | 2.2°C | 15.3% | 631.9hPa | 0V | 00:00:00 | 00:00:00 | 00:00:00 | |
| PU1XMG-16 | 2026-09-03 11:44:46 | -22.81462 | -43.22609 | 70° | 55km/h | 3942m | 8.8m/s | 2.6°C | 14.5% | 635.0hPa | 0V | 00:00:00 | 00:00:00 | 00:00:00 | |
| PU1XMG-16 | 2026-09-03 11:44:39 | -22.81495 | -43.22716 | 73° | 64km/h | 3893m | 4.2m/s | 3.0°C | 12.2% | 638.6hPa | 0V | 00:00:00 | 00:00:00 | 00:00:00 | |
| PU1XMG-16 | 2026-09-03 11:44:34 | -22.81526 | -43.22786 | 53° | 58km/h | 3864m | 6.1m/s | 3.3°C | 10.7% | 640.6hPa | 0V | 00:00:00 | 00:00:00 | 00:00:00 | |
| PU1XMG-16 | 2026-09-03 11:44:29 | -22.81554 | -43.22842 | 77° | 46km/h | 3830m | 7.8m/s | 3.6°C | 7.3% | 643.9hPa | 0V | 00:00:00 | 00:00:00 | 00:00:00 | |
| PU1XMG-16 | 2026-09-03 11:44:23 | -22.81577 | -43.22930 | 77° | 55km/h | 3794m | 8.5m/s | 3.9°C | 6.6% | 646.7hPa | 0V | 00:00:00 | 00:00:00 | 00:00:00 | |
| PU1XMG-16 | 2026-09-03 11:44:17 | -22.81607 | -43.23020 | 66° | 64km/h | 3759m | 8.4m/s | 4.2°C | 5.1% | 649.5hPa | 0V | 00:00:00 | 00:00:00 | 00:00:00 | |
| PU1XMG-16 | 2026-09-03 11:44:11 | -22.81626 | -43.23102 | 81° | 46km/h | 3718m | 6.3m/s | 4.5°C | 3.0% | 652.8hPa | 0V | 00:00:00 | 00:00:00 | 00:00:00 | |
| PU1XMG-16 | 2026-09-03 11:44:04 | -22.81644 | -43.23177 | 71° | 42km/h | 3678m | 6.4m/s | 4.7°C | 1.9% | 655.9hPa | 0V | 00:00:00 | 00:00:00 | 00:00:00 | |
| PU1XMG-16 | 2026-09-03 11:43:59 | -22.81676 | -43.23231 | 57° | 29km/h | 3641m | 4.6m/s | 4.9°C | 1.7% | 658.6hPa | 0V | 00:00:00 | 00:00:00 | 00:00:00 | |
| PU1XMG-16 | 2026-09-03 11:43:55 | -22.81697 | -43.23279 | 64° | 51km/h | 3602m | 9.4m/s | 5.1°C | 1.3% | 661.4hPa | 0V | 00:00:00 | 00:00:00 | 00:00:00 | |
| PU1XMG-16 | 2026-09-03 11:43:49 | -22.81738 | -43.23341 | 48° | 53km/h | 3570m | 4.5m/s | 5.4°C | 1.3% | 664.7hPa | 0V | 00:00:00 | 00:00:00 | 00:00:00 | |
| PU1XMG-16 | 2026-09-03 11:43:44 | -22.81782 | -43.23389 | 48° | 49km/h | 3543m | 4.7m/s | 5.5°C | 1.2% | 666.8hPa | 0V | 00:00:00 | 00:00:00 | 00:00:00 | |
| PU1XMG-16 | 2026-09-03 11:43:38 | -22.81827 | -43.23442 | 50° | 47km/h | 3513m | 4.5m/s | 5.5°C | 1.9% | 669.5hPa | 0V | 00:00:00 | 00:00:00 | 00:00:00 | |
| PU1XMG-16 | 2026-09-03 11:43:31 | -22.81859 | -43.23507 | 80° | 35km/h | 3479m | 5.3m/s | 5.1°C | 1.6% | 672.2hPa | 0V | 00:00:00 | 00:00:00 | 00:00:00 | |
| PU1XMG-16 | 2026-09-03 11:43:26 | -22.81865 | -43.23556 | 85° | 37km/h | 3457m | 8.1m/s | 5.1°C | 1.7% | 674.1hPa | 0V | 00:00:00 | 00:00:00 | 00:00:00 | |
| PU1XMG-16 | 2026-09-03 11:43:21 | -22.81873 | -43.23617 | 80° | 51km/h | 3430m | 6.1m/s | 5.2°C | 2.7% | 676.5hPa | 0V | 00:00:00 | 00:00:00 | 00:00:00 | |
| PU1XMG-16 | 2026-09-03 11:43:16 | -22.81889 | -43.23668 | 53° | 35km/h | 3402m | 5.6m/s | 5.4°C | 3.5% | 678.7hPa | 0V | 00:00:00 | 00:00:00 | 00:00:00 | |
| PU1XMG-16 | 2026-09-03 11:43:11 | -22.81916 | -43.23720 | 74° | 49km/h | 3370m | 7.7m/s | 5.5°C | 3.6% | 681.2hPa | 0V | 00:00:00 | 00:00:00 | 00:00:00 | |
| PU1XMG-16 | 2026-09-03 11:43:06 | -22.81949 | -43.23790 | 67° | 40km/h | 3328m | 8.1m/s | 5.6°C | 2.2% | 684.6hPa | 0V | 00:00:00 | 00:00:00 | 00:00:00 | |
| PU1XMG-16 | 2026-09-03 11:43:01 | -22.81966 | -43.23845 | 63° | 40km/h | 3301m | 6.6m/s | 5.8°C | 2.5% | 687.2hPa | 0V | 00:00:00 | 00:00:00 | 00:00:00 | |
| PU1XMG-16 | 2026-09-03 11:42:54 | -22.82009 | -43.23927 | 66° | 47km/h | 3262m | 9.1m/s | 5.9°C | 3.1% | 689.7hPa | 0V | 00:00:00 | 00:00:00 | 00:00:00 | |
| PU1XMG-16 | 2026-09-03 11:42:48 | -22.82041 | -43.23976 | 59° | 51km/h | 3225m | 4.7m/s | 6.0°C | 4.4% | 693.3hPa | 0V | 00:00:00 | 00:00:00 | 00:00:00 | |
| PU1XMG-16 | 2026-09-03 11:42:43 | -22.82063 | -43.24039 | 68° | 35km/h | 3191m | 7.0m/s | 6.3°C | 3.0% | 696.1hPa | 0V | 00:00:00 | 00:00:00 | 00:00:00 | |
| PU1XMG-16 | 2026-09-03 11:42:36 | -22.82095 | -43.24094 | 50° | 29km/h | 3155m | 6.0m/s | 6.6°C | 2.4% | 699.2hPa | 0V | 00:00:00 | 00:00:00 | 00:00:00 | |
| PU1XMG-16 | 2026-09-03 11:42:32 | -22.82123 | -43.24126 | 46° | 29km/h | 3127m | 6.8m/s | 6.8°C | 2.4% | 701.5hPa | 0V | 00:00:00 | 00:00:00 | 00:00:00 | |
| PU1XMG-16 | 2026-09-03 11:42:27 | -22.82148 | -43.24153 | 47° | 27km/h | 3096m | 6.2m/s | 7.0°C | 2.4% | 704.6hPa | 0V | 00:00:00 | 00:00:00 | 00:00:00 | |
| PU1XMG-16 | 2026-09-03 11:42:22 | -22.82158 | -43.24179 | 87° | 22km/h | 3064m | 5.9m/s | 7.2°C | 2.3% | 707.1hPa | 0V | 00:00:00 | 00:00:00 | 00:00:00 | |
| PU1XMG-16 | 2026-09-03 11:42:16 | -22.82167 | -43.24224 | 68° | 40km/h | 3037m | 6.1m/s | 7.4°C | 2.7% | 709.5hPa | 0V | 00:00:00 | 00:00:00 | 00:00:00 | |
| PU1XMG-16 | 2026-09-03 11:42:10 | -22.82197 | -43.24275 | 57° | 37km/h | 3004m | 8.4m/s | 7.7°C | 2.6% | 712.5hPa | 0V | 00:00:00 | 00:00:00 | 00:00:00 | |
| PU1XMG-16 | 2026-09-03 11:42:06 | -22.82220 | -43.24327 | 80° | 46km/h | 2977m | 4.9m/s | 8.0°C | 2.8% | 715.0hPa | 0V | 00:00:00 | 00:00:00 | 00:00:00 | |
| PU1XMG-16 | 2026-09-03 11:42:00 | -22.82240 | -43.24396 | 60° | 35km/h | 2936m | 5.5m/s | 8.2°C | 3.0% | 717.8hPa | 0V | 00:00:00 | 00:00:00 | 00:00:00 | |
| PU1XMG-16 | 2026-09-03 11:41:55 | -22.82250 | -43.24441 | 86° | 40km/h | 2912m | 5.0m/s | 8.4°C | 3.1% | 719.9hPa | 0V | 00:00:00 | 00:00:00 | 00:00:00 | |
| PU1XMG-16 | 2026-09-03 11:41:49 | -22.82257 | -43.24486 | 98° | 24km/h | 2881m | 6.1m/s | 8.7°C | 3.2% | 723.2hPa | 0V | 00:00:00 | 00:00:00 | 00:00:00 | |
| PU1XMG-16 | 2026-09-03 11:41:44 | -22.82249 | -43.24528 | 94° | 42km/h | 2852m | 5.8m/s | 8.9°C | 3.2% | 725.4hPa | 0V | 00:00:00 | 00:00:00 | 00:00:00 | |
| PU1XMG-16 | 2026-09-03 11:41:39 | -22.82259 | -43.24577 | 72° | 24km/h | 2823m | 6.7m/s | 9.2°C | 3.4% | 727.9hPa | 0V | 00:00:00 | 00:00:00 | 00:00:00 | |
| PU1XMG-16 | 2026-09-03 11:41:33 | -22.82267 | -43.24614 | 67° | 29km/h | 2790m | 4.6m/s | 9.3°C | 3.4% | 731.1hPa | 0V | 00:00:00 | 00:00:00 | 00:00:00 | |
| PU1XMG-16 | 2026-09-03 11:41:26 | -22.82273 | -43.24656 | 101° | 35km/h | 2759m | 6.1m/s | 9.5°C | 3.4% | 733.9hPa | 0V | 00:00:00 | 00:00:00 | 00:00:00 | |
| PU1XMG-16 | 2026-09-03 11:41:21 | -22.82270 | -43.24712 | 93° | 38km/h | 2729m | 6.0m/s | 9.7°C | 3.4% | 736.4hPa | 0V | 00:00:00 | 00:00:00 | 00:00:00 | |
| PU1XMG-16 | 2026-09-03 11:41:17 | -22.82268 | -43.24760 | 79° | 37km/h | 2691m | 7.7m/s | 9.8°C | 3.4% | 739.8hPa | 0V | 00:00:00 | 00:00:00 | 00:00:00 | |
| PU1XMG-16 | 2026-09-03 11:41:10 | -22.82275 | -43.24823 | 101° | 40km/h | 2659m | 5.9m/s | 9.9°C | 3.3% | 742.6hPa | 0V | 00:00:00 | 00:00:00 | 00:00:00 | |
| PU1XMG-16 | 2026-09-03 11:41:05 | -22.82272 | -43.24869 | 77° | 26km/h | 2636m | 5.5m/s | 9.9°C | 3.1% | 744.9hPa | 0V | 00:00:00 | 00:00:00 | 00:00:00 | |
| PU1XMG-16 | 2026-09-03 11:41:01 | -22.82277 | -43.24907 | 102° | 29km/h | 2607m | 6.5m/s | 9.9°C | 3.7% | 747.6hPa | 0V | 00:00:00 | 00:00:00 | 00:00:00 | |
| PU1XMG-16 | 2026-09-03 11:40:55 | -22.82275 | -43.24944 | 97° | 31km/h | 2574m | 8.8m/s | 9.6°C | 11.5% | 750.3hPa | 0V | 00:00:00 | 00:00:00 | 00:00:00 | |
| PU1XMG-16 | 2026-09-03 11:40:49 | -22.82256 | -43.24989 | 78° | 22km/h | 2531m | 5.5m/s | 9.5°C | 15.6% | 753.5hPa | 0V | 00:00:00 | 00:00:00 | 00:00:00 | |
| PU1XMG-16 | 2026-09-03 11:40:45 | -22.82258 | -43.25013 | 113° | 26km/h | 2507m | 6.1m/s | 9.6°C | 16.8% | 756.2hPa | 0V | 00:00:00 | 00:00:00 | 00:00:00 | |
| PU1XMG-16 | 2026-09-03 11:40:40 | -22.82247 | -43.25060 | 82° | 29km/h | 2473m | 4.3m/s | 9.1°C | 31.6% | 759.1hPa | 0V | 00:00:00 | 00:00:00 | 00:00:00 | |
| PU1XMG-16 | 2026-09-03 11:40:35 | -22.82247 | -43.25093 | 110° | 31km/h | 2450m | 5.3m/s | 9.0°C | 43.5% | 761.7hPa | 0V | 00:00:00 | 00:00:00 | 00:00:00 | |
| PU1XMG-16 | 2026-09-03 11:40:28 | -22.82232 | -43.25134 | 92° | 31km/h | 2414m | 6.1m/s | 9.0°C | 51.0% | 764.9hPa | 0V | 00:00:00 | 00:00:00 | 00:00:00 | |
| PU1XMG-16 | 2026-09-03 11:40:22 | -22.82227 | -43.25188 | 111° | 24km/h | 2380m | 7.8m/s | 9.0°C | 61.3% | 768.0hPa | 0V | 00:00:00 | 00:00:00 | 00:00:00 | |
| PU1XMG-16 | 2026-09-03 11:40:18 | -22.82204 | -43.25227 | 121° | 42km/h | 2345m | 5.6m/s | 9.3°C | 62.6% | 771.3hPa | 0V | 00:00:00 | 00:00:00 | 00:00:00 | |
| PU1XMG-16 | 2026-09-03 11:40:12 | -22.82186 | -43.25284 | 121° | 35km/h | 2312m | 8.4m/s | 9.5°C | 61.6% | 774.3hPa | 0V | 00:00:00 | 00:00:00 | 00:00:00 | |
| PU1XMG-16 | 2026-09-03 11:40:06 | -22.82167 | -43.25338 | 95° | 42km/h | 2282m | 5.8m/s | 9.7°C | 61.0% | 777.0hPa | 0V | 00:00:00 | 00:00:00 | 00:00:00 | |
| PU1XMG-16 | 2026-09-03 11:40:01 | -22.82158 | -43.25406 | 111° | 46km/h | 2248m | 9.5m/s | 10.0°C | 59.4% | 780.3hPa | 0V | 00:00:00 | 00:00:00 | 00:00:00 | |
| PU1XMG-16 | 2026-09-03 11:39:56 | -22.82131 | -43.25456 | 125° | 38km/h | 2216m | 5.0m/s | 10.2°C | 58.2% | 783.3hPa | 0V | 00:00:00 | 00:00:00 | 00:00:00 | |
| PU1XMG-16 | 2026-09-03 11:39:49 | -22.82108 | -43.25493 | 117° | 33km/h | 2175m | 7.4m/s | 10.4°C | 57.5% | 787.2hPa | 0V | 00:00:00 | 00:00:00 | 00:00:00 | |
| PU1XMG-16 | 2026-09-03 11:39:43 | -22.82092 | -43.25543 | 121° | 22km/h | 2138m | 8.0m/s | 10.6°C | 57.5% | 790.7hPa | 0V | 00:00:00 | 00:00:00 | 00:00:00 | |
| PU1XMG-16 | 2026-09-03 11:39:38 | -22.82066 | -43.25572 | 125° | 35km/h | 2111m | 5.4m/s | 10.6°C | 58.5% | 793.3hPa | 0V | 00:00:00 | 00:00:00 | 00:00:00 | |
| PU1XMG-16 | 2026-09-03 11:39:33 | -22.82055 | -43.25619 | 76° | 16km/h | 2079m | 6.1m/s | 10.7°C | 59.4% | 796.3hPa | 0V | 00:00:00 | 00:00:00 | 00:00:00 | |
| PU1XMG-16 | 2026-09-03 11:39:27 | -22.82056 | -43.25629 | 134° | 7km/h | 2056m | 4.8m/s | 10.7°C | 60.6% | 798.5hPa | 0V | 00:00:00 | 00:00:00 | 00:00:00 | |
| PU1XMG-16 | 2026-09-03 11:39:21 | -22.82035 | -43.25657 | 118° | 33km/h | 2022m | 5.7m/s | 10.3°C | 66.8% | 801.7hPa | 0V | 00:00:00 | 00:00:00 | 00:00:00 | |
| PU1XMG-16 | 2026-09-03 11:39:16 | -22.82016 | -43.25699 | 132° | 27km/h | 1988m | 8.1m/s | 10.0°C | 73.2% | 805.2hPa | 0V | 00:00:00 | 00:00:00 | 00:00:00 | |
| PU1XMG-16 | 2026-09-03 11:39:10 | -22.81996 | -43.25707 | 146° | 13km/h | 1957m | 4.8m/s | 9.7°C | 77.9% | 808.1hPa | 0V | 00:00:00 | 00:00:00 | 00:00:00 | |
| PU1XMG-16 | 2026-09-03 11:39:05 | -22.81974 | -43.25725 | 162° | 27km/h | 1929m | 4.8m/s | 9.8°C | 78.5% | 810.8hPa | 0V | 00:00:00 | 00:00:00 | 00:00:00 | |
| PU1XMG-16 | 2026-09-03 11:39:00 | -22.81954 | -43.25730 | 131° | 13km/h | 1903m | 4.6m/s | 9.8°C | 79.0% | 813.3hPa | 0V | 00:00:00 | 00:00:00 | 00:00:00 | |
| PU1XMG-16 | 2026-09-03 11:38:55 | -22.81933 | -43.25748 | 154° | 29km/h | 1876m | 6.4m/s | 9.8°C | 80.8% | 816.0hPa | 0V | 00:00:00 | 00:00:00 | 00:00:00 | |
| PU1XMG-16 | 2026-09-03 11:38:49 | -22.81902 | -43.25769 | 187° | 18km/h | 1836m | 4.1m/s | 10.0°C | 81.1% | 819.7hPa | 0V | 00:00:00 | 00:00:00 | 00:00:00 | |
| PU1XMG-16 | 2026-09-03 11:38:45 | -22.81874 | -43.25780 | 145° | 26km/h | 1805m | 6.1m/s | 10.1°C | 80.1% | 822.4hPa | 0V | 00:00:00 | 00:00:00 | 00:00:00 | |
| PU1XMG-16 | 2026-09-03 11:38:39 | -22.81849 | -43.25787 | 188° | 20km/h | 1782m | 4.4m/s | 10.4°C | 79.5% | 825.1hPa | 0V | 00:00:00 | 00:00:00 | 00:00:00 | |
| PU1XMG-16 | 2026-09-03 11:38:34 | -22.81834 | -43.25787 | 129° | 11km/h | 1752m | 4.5m/s | 10.5°C | 78.7% | 827.7hPa | 0V | 00:00:00 | 00:00:00 | 00:00:00 | |
| PU1XMG-16 | 2026-09-03 11:38:29 | -22.81817 | -43.25790 | 184° | 18km/h | 1724m | 4.5m/s | 10.7°C | 78.9% | 830.9hPa | 0V | 00:00:00 | 00:00:00 | 00:00:00 | |
| PU1XMG-16 | 2026-09-03 11:38:22 | -22.81791 | -43.25806 | 140° | 18km/h | 1693m | 5.5m/s | 10.8°C | 79.7% | 834.2hPa | 0V | 00:00:00 | 00:00:00 | 00:00:00 | |
| PU1XMG-16 | 2026-09-03 11:38:17 | -22.81775 | -43.25817 | 177° | 7km/h | 1668m | 4.7m/s | 10.9°C | 80.0% | 836.6hPa | 0V | 00:00:00 | 00:00:00 | 00:00:00 | |
| PU1XMG-16 | 2026-09-03 11:38:12 | -22.81749 | -43.25808 | 177° | 24km/h | 1635m | 5.7m/s | 10.5°C | 86.4% | 839.8hPa | 0V | 00:00:00 | 00:00:00 | 00:00:00 | |
| PU1XMG-16 | 2026-09-03 11:38:07 | -22.81718 | -43.25814 | 177° | 33km/h | 1607m | 6.4m/s | 10.6°C | 86.6% | 842.9hPa | 0V | 00:00:00 | 00:00:00 | 00:00:00 | |
| PU1XMG-16 | 2026-09-03 11:38:00 | -22.81669 | -43.25815 | 183° | 22km/h | 1577m | 4.9m/s | 10.6°C | 88.0% | 845.7hPa | 0V | 00:00:00 | 00:00:00 | 00:00:00 | |
| PU1XMG-16 | 2026-09-03 11:37:50 | -22.81592 | -43.25806 | 210° | 33km/h | 1509m | 3.6m/s | 10.8°C | 88.3% | 852.1hPa | 0V | 00:00:00 | 00:00:00 | 00:00:00 | |
| PU1XMG-16 | 2026-09-03 11:37:45 | -22.81561 | -43.25794 | 172° | 24km/h | 1482m | 5.5m/s | 11.0°C | 87.4% | 854.9hPa | 0V | 00:00:00 | 00:00:00 | 00:00:00 | |
| PU1XMG-16 | 2026-09-03 11:37:38 | -22.81518 | -43.25790 | 205° | 35km/h | 1456m | 6.2m/s | 11.3°C | 86.2% | 858.0hPa | 0V | 00:00:00 | 00:00:00 | 00:00:00 | |
| PU1XMG-16 | 2026-09-03 11:37:33 | -22.81491 | -43.25778 | 188° | 20km/h | 1428m | 4.8m/s | 11.5°C | 85.3% | 860.9hPa | 0V | 00:00:00 | 00:00:00 | 00:00:00 | |
| PU1XMG-16 | 2026-09-03 11:37:27 | -22.81454 | -43.25757 | 221° | 31km/h | 1392m | 8.7m/s | 11.8°C | 83.5% | 864.5hPa | 0V | 00:00:00 | 00:00:00 | 00:00:00 | |
| PU1XMG-16 | 2026-09-03 11:37:22 | -22.81419 | -43.25742 | 179° | 22km/h | 1350m | 3.7m/s | 12.2°C | 81.9% | 869.1hPa | 0V | 00:00:00 | 00:00:00 | 00:00:00 | |
| PU1XMG-16 | 2026-09-03 11:37:17 | -22.81390 | -43.25736 | 196° | 16km/h | 1320m | 5.7m/s | 12.4°C | 80.6% | 872.2hPa | 0V | 00:00:00 | 00:00:00 | 00:00:00 | |
| PU1XMG-16 | 2026-09-03 11:37:11 | -22.81370 | -43.25740 | 191° | 20km/h | 1291m | 5.8m/s | 12.6°C | 79.9% | 875.3hPa | 0V | 00:00:00 | 00:00:00 | 00:00:00 | |
| PU1XMG-16 | 2026-09-03 11:37:05 | -22.81332 | -43.25723 | 192° | 31km/h | 1259m | 8.0m/s | 12.7°C | 79.4% | 878.3hPa | 0V | 00:00:00 | 00:00:00 | 00:00:00 | |
| PU1XMG-16 | 2026-09-03 11:36:55 | -22.81274 | -43.25721 | 166° | 15km/h | 1190m | 7.9m/s | 13.0°C | 76.8% | 885.6hPa | 0V | 00:00:00 | 00:00:00 | 00:00:00 | |
| PU1XMG-16 | 2026-09-03 11:36:48 | -22.81258 | -43.25708 | 209° | 20km/h | 1156m | 4.6m/s | 13.3°C | 75.9% | 889.1hPa | 0V | 00:00:00 | 00:00:00 | 00:00:00 | |
| PU1XMG-16 | 2026-09-03 11:36:44 | -22.81245 | -43.25701 | 258° | 11km/h | 1129m | 6.5m/s | 13.5°C | 75.4% | 892.0hPa | 0V | 00:00:00 | 00:00:00 | 00:00:00 | |
| PU1XMG-16 | 2026-09-03 11:36:38 | -22.81237 | -43.25673 | 257° | 16km/h | 1095m | 5.4m/s | 13.8°C | 74.4% | 895.4hPa | 0V | 00:00:00 | 00:00:00 | 00:00:00 | |
| PU1XMG-16 | 2026-09-03 11:36:32 | -22.81217 | -43.25655 | 190° | 18km/h | 1068m | 6.3m/s | 14.0°C | 72.9% | 898.3hPa | 0V | 00:00:00 | 00:00:00 | 00:00:00 | |
| PU1XMG-16 | 2026-09-03 11:36:27 | -22.81207 | -43.25653 | 273° | 13km/h | 1039m | 5.0m/s | 14.3°C | 72.7% | 901.6hPa | 0V | 00:00:00 | 00:00:00 | 00:00:00 | |
| PU1XMG-16 | 2026-09-03 11:36:21 | -22.81206 | -43.25629 | 264° | 13km/h | 1010m | 4.1m/s | 14.5°C | 71.5% | 904.7hPa | 0V | 00:00:00 | 00:00:00 | 00:00:00 | |
| PU1XMG-16 | 2026-09-03 11:36:15 | -22.81199 | -43.25616 | 209° | 18km/h | 978m | 5.6m/s | 14.7°C | 68.5% | 908.1hPa | 0V | 00:00:00 | 00:00:00 | 00:00:00 | |
| PU1XMG-16 | 2026-09-03 11:36:09 | -22.81171 | -43.25605 | 240° | 22km/h | 935m | 4.6m/s | 15.0°C | 66.9% | 912.0hPa | 0V | 00:00:00 | 00:00:00 | 00:00:00 | |
| PU1XMG-16 | 2026-09-03 11:36:05 | -22.81160 | -43.25579 | 225° | 16km/h | 906m | 7.9m/s | 15.2°C | 67.8% | 915.2hPa | 0V | 00:00:00 | 00:00:00 | 00:00:00 | |
| PU1XMG-16 | 2026-09-03 11:35:58 | -22.81141 | -43.25567 | 239° | 15km/h | 878m | 5.3m/s | 15.3°C | 67.3% | 918.8hPa | 0V | 00:00:00 | 00:00:00 | 00:00:00 | |
| PU1XMG-16 | 2026-09-03 11:35:52 | -22.81133 | -43.25549 | 210° | 16km/h | 844m | 5.4m/s | 15.4°C | 0% | 922.6hPa | 0V | 00:00:00 | 00:00:00 | 00:00:00 | |
| PU1XMG-16 | 2026-09-03 11:35:46 | -22.81110 | -43.25518 | 259° | 22km/h | 811m | 5.3m/s | 15.6°C | 0% | 926.1hPa | 0V | 00:00:00 | 00:00:00 | 00:00:00 | |
| PU1XMG-16 | 2026-09-03 11:35:40 | -22.81103 | -43.25508 | 194° | 13km/h | 781m | 5.7m/s | 0°C | 0% | 929.4hPa | 0V | 00:00:00 | 00:00:00 | 00:00:00 | |
| PU1XMG-16 | 2026-09-03 11:35:34 | -22.81095 | -43.25487 | 250° | 24km/h | 747m | 4.3m/s | 0°C | 0% | 933.1hPa | 0V | 00:00:00 | 00:00:00 | 00:00:00 | |
| PU1XMG-16 | 2026-09-03 11:35:30 | -22.81080 | -43.25471 | 186° | 9km/h | 717m | 5.5m/s | 0°C | 0% | 0hPa | 0V | 00:00:00 | 00:00:00 | 00:00:00 | |
| PU1XMG-16 | 2026-09-03 11:35:24 | -22.81065 | -43.25456 | 214° | 20km/h | 684m | 4.7m/s | 0°C | 0% | 0hPa | 0V | 00:00:00 | 00:00:00 | 00:00:00 | |
| PU1XMG-16 | 2026-09-03 11:35:18 | -22.81055 | -43.25443 | 267° | 16km/h | 656m | 6.2m/s | 0°C | 0% | 0hPa | 0V | 00:00:00 | 00:00:00 | 00:00:00 | |
| PU1XMG-16 | 2026-09-03 11:35:13 | -22.81048 | -43.25410 | 248° | 15km/h | 622m | 5.0m/s | 0°C | 0% | 0hPa | 0V | 00:00:00 | 00:00:00 | 00:00:00 | |
| PU1XMG-16 | 2026-09-03 11:34:13 | -22.80962 | -43.25136 | 252° | 24km/h | 277m | 6.0m/s | 0°C | 0% | 0hPa | 0V | 00:00:00 | 00:00:00 | 00:00:00 |